Observation data for Goodnight on 07/20/2019      Previous  Date       Current Mesonet Observations  Soil Data  Daily Summary Page  Observations in Plain Language
KGO1 200500Z 16014KT 30/17 A2993 RMK A01 T02950169  RH  047%=      5-min Rain = 0
KGO1 200501Z 17015KT 30/17 A2993 RMK A01 T02950169  RH  047%=      5-min Rain = 0
KGO1 200502Z 17013KT 30/17 A2993 RMK A01 T02950169  RH  047%=      5-min Rain = 0
KGO1 200503Z 17015KT 30/17 A2993 RMK A01 T02950169  RH  047%=      5-min Rain = 0
KGO1 200504Z 16014KT 30/17 A2993 RMK A01 T02950169  RH  047%=      5-min Rain = 0
KGO1 200505Z 16013KT 30/17 A2993 RMK A01 T02950169  RH  047%=      5-min Rain = 0
KGO1 200506Z 16012KT 29/17 A2993 RMK A01 T02940169  RH  047%=      5-min Rain = 0
KGO1 200507Z 16013KT 29/17 A2993 RMK A01 T02930169  RH  047%=      5-min Rain = 0
KGO1 200508Z 17013KT 29/17 A2993 RMK A01 T02920168  RH  047%=      5-min Rain = 0
KGO1 200509Z 16012KT 29/17 A2993 RMK A01 T02930168  RH  047%=      5-min Rain = 0
KGO1 200510Z 16013KT 29/17 A2993 RMK A01 T02930169  RH  047%=      5-min Rain = 0
KGO1 200511Z 16012KT 29/17 A2993 RMK A01 T02930169  RH  047%=      5-min Rain = 0
KGO1 200512Z 16014KT 29/17 A2993 RMK A01 T02910168  RH  047%=      5-min Rain = 0
KGO1 200513Z 16014KT 29/17 A2993 RMK A01 T02910168  RH  047%=      5-min Rain = 0
KGO1 200514Z 16014KT 29/17 A2993 RMK A01 T02920169  RH  047%=      5-min Rain = 0
KGO1 200515Z 16014KT 29/17 A2993 RMK A01 T02910168  RH  047%=      5-min Rain = 0
KGO1 200516Z 16012KT 29/17 A2993 RMK A01 T02910168  RH  047%=      5-min Rain = 0
KGO1 200517Z 16014KT 29/17 A2993 RMK A01 T02910168  RH  048%=      5-min Rain = 0
KGO1 200518Z 16015KT 29/17 A2993 RMK A01 T02900168  RH  048%=      5-min Rain = 0
KGO1 200519Z 16013KT 29/17 A2993 RMK A01 T02900168  RH  048%=      5-min Rain = 0
KGO1 200520Z 16013KT 29/17 A2993 RMK A01 T02900168  RH  048%=      5-min Rain = 0
KGO1 200521Z 16013KT 29/17 A2993 RMK A01 T02890168  RH  048%=      5-min Rain = 0
KGO1 200522Z 16013KT 29/17 A2993 RMK A01 T02890168  RH  048%=      5-min Rain = 0
KGO1 200523Z 17013KT 29/17 A2993 RMK A01 T02890168  RH  048%=      5-min Rain = 0
KGO1 200524Z 17013KT 29/17 A2993 RMK A01 T02880168  RH  048%=      5-min Rain = 0
KGO1 200525Z 17012KT 29/17 A2993 RMK A01 T02880168  RH  048%=      5-min Rain = 0
KGO1 200526Z 17012KT 29/17 A2993 RMK A01 T02870168  RH  048%=      5-min Rain = 0
KGO1 200527Z 16012KT 29/17 A2993 RMK A01 T02870168  RH  048%=      5-min Rain = 0
KGO1 200528Z 16013KT 29/17 A2993 RMK A01 T02870168  RH  048%=      5-min Rain = 0
KGO1 200529Z 17012KT 29/17 A2993 RMK A01 T02870168  RH  049%=      5-min Rain = 0
KGO1 200530Z 17012KT 29/17 A2993 RMK A01 T02860168  RH  049%=      5-min Rain = 0
KGO1 200531Z 17011KT 29/17 A2993 RMK A01 T02860169  RH  049%=      5-min Rain = 0
KGO1 200532Z 17011KT 29/17 A2993 RMK A01 T02860169  RH  049%=      5-min Rain = 0
KGO1 200533Z 17012KT 29/17 A2993 RMK A01 T02850169  RH  049%=      5-min Rain = 0
KGO1 200534Z 17012KT 29/17 A2993 RMK A01 T02850169  RH  049%=      5-min Rain = 0
KGO1 200535Z 16012KT 28/17 A2993 RMK A01 T02840169  RH  049%=      5-min Rain = 0
KGO1 200536Z 16012KT 28/17 A2993 RMK A01 T02840169  RH  049%=      5-min Rain = 0
KGO1 200537Z 17013KT 28/17 A2994 RMK A01 T02840168  RH  049%=      5-min Rain = 0
KGO1 200538Z 16011KT 28/17 A2994 RMK A01 T02840168  RH  049%=      5-min Rain = 0
KGO1 200539Z 17011KT 28/17 A2994 RMK A01 T02840168  RH  049%=      5-min Rain = 0
KGO1 200540Z 16013KT 28/17 A2993 RMK A01 T02840168  RH  050%=      5-min Rain = 0
KGO1 200541Z 16012KT 28/17 A2993 RMK A01 T02830168  RH  050%=      5-min Rain = 0
KGO1 200542Z 16012KT 28/17 A2993 RMK A01 T02830168  RH  049%=      5-min Rain = 0
KGO1 200543Z 16013KT 28/17 A2993 RMK A01 T02830168  RH  049%=      5-min Rain = 0
KGO1 200544Z 16012KT 28/17 A2993 RMK A01 T02830168  RH  049%=      5-min Rain = 0
KGO1 200545Z 16012KT 28/17 A2993 RMK A01 T02830168  RH  050%=      5-min Rain = 0
KGO1 200546Z 16011KT 28/17 A2993 RMK A01 T02830167  RH  050%=      5-min Rain = 0
KGO1 200547Z 16011KT 28/17 A2993 RMK A01 T02820168  RH  050%=      5-min Rain = 0
KGO1 200548Z 17011KT 28/17 A2993 RMK A01 T02810167  RH  050%=      5-min Rain = 0
KGO1 200549Z 16010KT 28/17 A2993 RMK A01 T02810167  RH  050%=      5-min Rain = 0
KGO1 200550Z 17011KT 28/17 A2993 RMK A01 T02800167  RH  050%=      5-min Rain = 0
KGO1 200551Z 16011KT 28/17 A2993 RMK A01 T02800167  RH  050%=      5-min Rain = 0
KGO1 200552Z 17011KT 28/17 A2993 RMK A01 T02790167  RH  050%=      5-min Rain = 0
KGO1 200553Z 17011KT 28/17 A2993 RMK A01 T02790167  RH  050%=      5-min Rain = 0
KGO1 200554Z 17010KT 28/17 A2993 RMK A01 T02790167  RH  050%=      5-min Rain = 0
KGO1 200555Z 17010KT 28/17 A2993 RMK A01 T02790166  RH  050%=      5-min Rain = 0
KGO1 200556Z 17010KT 28/17 A2993 RMK A01 T02790166  RH  050%=      5-min Rain = 0
KGO1 200557Z 17011KT 28/17 A2993 RMK A01 T02780166  RH  050%=      5-min Rain = 0
KGO1 200558Z 17010KT 28/17 A2993 RMK A01 T02780166  RH  050%=      5-min Rain = 0
KGO1 200559Z 17011KT 28/17 A2993 RMK A01 T02780166  RH  051%=      5-min Rain = 0
KGO1 200600Z 17010KT 28/17 A2993 RMK A01 T02780166  RH  051%=      5-min Rain = 0
KGO1 200601Z 17010KT 28/17 A2993 RMK A01 T02770166  RH  051%=      5-min Rain = 0
KGO1 200602Z 17010KT 28/17 A2993 RMK A01 T02770166  RH  051%=      5-min Rain = 0
KGO1 200603Z 17010KT 28/17 A2993 RMK A01 T02760166  RH  051%=      5-min Rain = 0
KGO1 200604Z 16009KT 28/17 A2993 RMK A01 T02760166  RH  051%=      5-min Rain = 0
KGO1 200605Z 16010KT 28/17 A2993 RMK A01 T02760165  RH  051%=      5-min Rain = 0
KGO1 200606Z 16010KT 28/17 A2993 RMK A01 T02750165  RH  051%=      5-min Rain = 0
KGO1 200607Z 16011KT 28/16 A2993 RMK A01 T02750164  RH  051%=      5-min Rain = 0
KGO1 200608Z 16012KT 28/17 A2993 RMK A01 T02760165  RH  051%=      5-min Rain = 0
KGO1 200609Z 16010KT 28/16 A2994 RMK A01 T02760164  RH  051%=      5-min Rain = 0
KGO1 200610Z 17009KT 28/16 A2994 RMK A01 T02750164  RH  051%=      5-min Rain = 0
KGO1 200611Z 17010KT 28/16 A2994 RMK A01 T02750164  RH  051%=      5-min Rain = 0
KGO1 200612Z 17010KT 28/16 A2994 RMK A01 T02750164  RH  051%=      5-min Rain = 0
KGO1 200613Z 17010KT 28/16 A2994 RMK A01 T02750164  RH  051%=      5-min Rain = 0
KGO1 200614Z 17010KT 28/16 A2994 RMK A01 T02750164  RH  051%=      5-min Rain = 0
KGO1 200615Z 17009KT 28/16 A2994 RMK A01 T02750164  RH  051%=      5-min Rain = 0
KGO1 200616Z 17009KT 27/16 A2994 RMK A01 T02740163  RH  051%=      5-min Rain = 0
KGO1 200617Z 17009KT 27/16 A2994 RMK A01 T02740164  RH  051%=      5-min Rain = 0
KGO1 200618Z 17010KT 27/16 A2994 RMK A01 T02730163  RH  051%=      5-min Rain = 0
KGO1 200619Z 17010KT 27/16 A2994 RMK A01 T02730163  RH  051%=      5-min Rain = 0
KGO1 200620Z 17009KT 27/16 A2994 RMK A01 T02730163  RH  051%=      5-min Rain = 0
KGO1 200621Z 16010KT 27/16 A2994 RMK A01 T02720163  RH  051%=      5-min Rain = 0
KGO1 200622Z 17010KT 27/16 A2994 RMK A01 T02720163  RH  051%=      5-min Rain = 0
KGO1 200623Z 16010KT 27/16 A2994 RMK A01 T02720163  RH  051%=      5-min Rain = 0
KGO1 200624Z 16010KT 27/16 A2994 RMK A01 T02720163  RH  051%=      5-min Rain = 0
KGO1 200625Z 16009KT 27/16 A2994 RMK A01 T02710162  RH  051%=      5-min Rain = 0
KGO1 200626Z 16009KT 27/16 A2994 RMK A01 T02710162  RH  051%=      5-min Rain = 0
KGO1 200627Z 17009KT 27/16 A2994 RMK A01 T02700162  RH  052%=      5-min Rain = 0
KGO1 200628Z 17010KT 27/16 A2994 RMK A01 T02700162  RH  052%=      5-min Rain = 0
KGO1 200629Z 17010KT 27/16 A2994 RMK A01 T02700161  RH  051%=      5-min Rain = 0
KGO1 200630Z 17010KT 27/16 A2994 RMK A01 T02700161  RH  051%=      5-min Rain = 0
KGO1 200631Z 16009KT 27/16 A2994 RMK A01 T02700161  RH  051%=      5-min Rain = 0
KGO1 200632Z 17009KT 27/16 A2994 RMK A01 T02700161  RH  051%=      5-min Rain = 0
KGO1 200633Z 17009KT 27/16 A2994 RMK A01 T02700161  RH  051%=      5-min Rain = 0
KGO1 200634Z 16010KT 27/16 A2994 RMK A01 T02700160  RH  051%=      5-min Rain = 0
KGO1 200635Z 16010KT 27/16 A2994 RMK A01 T02700160  RH  051%=      5-min Rain = 0
KGO1 200636Z 17010KT 27/16 A2994 RMK A01 T02690159  RH  051%=      5-min Rain = 0
KGO1 200637Z 17010KT 27/16 A2994 RMK A01 T02690159  RH  051%=      5-min Rain = 0
KGO1 200638Z 17010KT 27/16 A2994 RMK A01 T02690158  RH  050%=      5-min Rain = 0
KGO1 200639Z 17010KT 27/16 A2994 RMK A01 T02700158  RH  050%=      5-min Rain = 0
KGO1 200640Z 17009KT 27/16 A2994 RMK A01 T02700158  RH  050%=      5-min Rain = 0
KGO1 200641Z 17010KT 27/16 A2994 RMK A01 T02700158  RH  050%=      5-min Rain = 0
KGO1 200642Z 17010KT 27/16 A2994 RMK A01 T02690157  RH  050%=      5-min Rain = 0
KGO1 200643Z 17010KT 27/16 A2994 RMK A01 T02690156  RH  050%=      5-min Rain = 0
KGO1 200644Z 17010KT 27/16 A2994 RMK A01 T02700156  RH  050%=      5-min Rain = 0
KGO1 200645Z 17009KT 27/16 A2994 RMK A01 T02700156  RH  050%=      5-min Rain = 0
KGO1 200646Z 17010KT 27/16 A2994 RMK A01 T02700156  RH  050%=      5-min Rain = 0
KGO1 200647Z 17010KT 27/16 A2994 RMK A01 T02690156  RH  050%=      5-min Rain = 0
KGO1 200648Z 17009KT 27/16 A2994 RMK A01 T02690156  RH  050%=      5-min Rain = 0
KGO1 200649Z 17010KT 27/16 A2994 RMK A01 T02690156  RH  050%=      5-min Rain = 0
KGO1 200650Z 17010KT 27/16 A2994 RMK A01 T02690156  RH  050%=      5-min Rain = 0
KGO1 200651Z 17010KT 27/16 A2994 RMK A01 T02680156  RH  050%=      5-min Rain = 0
KGO1 200652Z 17010KT 27/16 A2994 RMK A01 T02680155  RH  050%=      5-min Rain = 0
KGO1 200653Z 17010KT 27/15 A2994 RMK A01 T02680154  RH  050%=      5-min Rain = 0
KGO1 200654Z 17010KT 27/15 A2994 RMK A01 T02680154  RH  050%=      5-min Rain = 0
KGO1 200655Z 18009KT 27/15 A2994 RMK A01 T02680154  RH  050%=      5-min Rain = 0
KGO1 200656Z 17009KT 27/15 A2994 RMK A01 T02680154  RH  050%=      5-min Rain = 0
KGO1 200657Z 17009KT 27/15 A2994 RMK A01 T02670153  RH  050%=      5-min Rain = 0
KGO1 200658Z 17010KT 27/15 A2994 RMK A01 T02670152  RH  049%=      5-min Rain = 0
KGO1 200659Z 17010KT 27/15 A2994 RMK A01 T02660151  RH  049%=      5-min Rain = 0
KGO1 200700Z 18010KT 27/15 A2994 RMK A01 T02670150  RH  049%=      5-min Rain = 0
KGO1 200701Z 17009KT 27/15 A2994 RMK A01 T02670150  RH  049%=      5-min Rain = 0
KGO1 200702Z 17009KT 27/15 A2994 RMK A01 T02670150  RH  049%=      5-min Rain = 0
KGO1 200703Z 17009KT 27/15 A2994 RMK A01 T02660150  RH  049%=      5-min Rain = 0
KGO1 200704Z 17010KT 27/15 A2994 RMK A01 T02650149  RH  049%=      5-min Rain = 0
KGO1 200705Z 18010KT 27/15 A2994 RMK A01 T02650149  RH  049%=      5-min Rain = 0
KGO1 200706Z 17009KT 26/15 A2994 RMK A01 T02640149  RH  049%=      5-min Rain = 0
KGO1 200707Z 18009KT 26/15 A2994 RMK A01 T02640149  RH  049%=      5-min Rain = 0
KGO1 200708Z 18009KT 26/15 A2994 RMK A01 T02640149  RH  049%=      5-min Rain = 0
KGO1 200709Z 18009KT 26/15 A2994 RMK A01 T02630149  RH  049%=      5-min Rain = 0
KGO1 200710Z 18009KT 26/15 A2994 RMK A01 T02630149  RH  049%=      5-min Rain = 0
KGO1 200711Z 18010KT 26/15 A2994 RMK A01 T02630148  RH  049%=      5-min Rain = 0
KGO1 200712Z 18009KT 26/15 A2994 RMK A01 T02630148  RH  049%=      5-min Rain = 0
KGO1 200713Z 18009KT 26/15 A2994 RMK A01 T02630148  RH  049%=      5-min Rain = 0
KGO1 200714Z 18009KT 26/15 A2994 RMK A01 T02630146  RH  049%=      5-min Rain = 0
KGO1 200715Z 19008KT 26/15 A2994 RMK A01 T02630146  RH  048%=      5-min Rain = 0
KGO1 200716Z 19008KT 26/14 A2994 RMK A01 T02620144  RH  048%=      5-min Rain = 0
KGO1 200717Z 19008KT 26/14 A2994 RMK A01 T02620144  RH  048%=      5-min Rain = 0
KGO1 200718Z 18009KT 26/14 A2994 RMK A01 T02620144  RH  048%=      5-min Rain = 0
KGO1 200719Z 18010KT 26/14 A2994 RMK A01 T02610142  RH  048%=      5-min Rain = 0
KGO1 200720Z 18009KT 26/14 A2994 RMK A01 T02610141  RH  047%=      5-min Rain = 0
KGO1 200721Z 18009KT 26/14 A2994 RMK A01 T02620141  RH  047%=      5-min Rain = 0
KGO1 200722Z 18010KT 26/14 A2994 RMK A01 T02620140  RH  047%=      5-min Rain = 0
KGO1 200723Z 18010KT 26/14 A2994 RMK A01 T02620139  RH  046%=      5-min Rain = 0
KGO1 200724Z 18010KT 26/14 A2994 RMK A01 T02630137  RH  046%=      5-min Rain = 0
KGO1 200725Z 19010KT 26/14 A2994 RMK A01 T02630136  RH  045%=      5-min Rain = 0
KGO1 200726Z 18010KT 27/13 A2994 RMK A01 T02650134  RH  045%=      5-min Rain = 0
KGO1 200727Z 18010KT 27/13 A2994 RMK A01 T02660133  RH  044%=      5-min Rain = 0
KGO1 200728Z 18011KT 27/13 A2994 RMK A01 T02680132  RH  043%=      5-min Rain = 0
KGO1 200729Z 19011KT 27/13 A2994 RMK A01 T02690132  RH  043%=      5-min Rain = 0
KGO1 200730Z 19012KT 27/13 A2994 RMK A01 T02710131  RH  042%=      5-min Rain = 0
KGO1 200731Z 19012KT 27/13 A2994 RMK A01 T02740131  RH  041%=      5-min Rain = 0
KGO1 200732Z 19013KT 28/13 A2994 RMK A01 T02760130  RH  041%=      5-min Rain = 0
KGO1 200733Z 19012KT 28/13 A2994 RMK A01 T02770130  RH  040%=      5-min Rain = 0
KGO1 200734Z 19013KT 28/13 A2994 RMK A01 T02780129  RH  040%=      5-min Rain = 0
KGO1 200735Z 20012KT 28/13 A2994 RMK A01 T02790129  RH  040%=      5-min Rain = 0
KGO1 200736Z 19014KT 28/13 A2994 RMK A01 T02810130  RH  039%=      5-min Rain = 0
KGO1 200737Z 19013KT 28/13 A2994 RMK A01 T02820130  RH  039%=      5-min Rain = 0
KGO1 200738Z 20013KT 28/13 A2994 RMK A01 T02820129  RH  039%=      5-min Rain = 0
KGO1 200739Z 20012KT 28/13 A2994 RMK A01 T02820130  RH  039%=      5-min Rain = 0
KGO1 200740Z 19012KT 28/13 A2994 RMK A01 T02830130  RH  039%=      5-min Rain = 0
KGO1 200741Z 19011KT 28/13 A2994 RMK A01 T02820129  RH  039%=      5-min Rain = 0
KGO1 200742Z 19012KT 28/13 A2994 RMK A01 T02830130  RH  039%=      5-min Rain = 0
KGO1 200743Z 19015KT 28/13 A2994 RMK A01 T02830129  RH  039%=      5-min Rain = 0
KGO1 200744Z 19012KT 28/13 A2994 RMK A01 T02840129  RH  038%=      5-min Rain = 0
KGO1 200745Z 19013KT 28/13 A2994 RMK A01 T02840129  RH  038%=      5-min Rain = 0
KGO1 200746Z 20012KT 28/13 A2994 RMK A01 T02840129  RH  038%=      5-min Rain = 0
KGO1 200747Z 19014KT 28/13 A2994 RMK A01 T02840130  RH  039%=      5-min Rain = 0
KGO1 200748Z 19015KT 28/13 A2994 RMK A01 T02840130  RH  039%=      5-min Rain = 0
KGO1 200749Z 20013KT 28/13 A2994 RMK A01 T02840130  RH  039%=      5-min Rain = 0
KGO1 200750Z 19016KT 28/13 A2994 RMK A01 T02840130  RH  038%=      5-min Rain = 0
KGO1 200751Z 20017KT 29/13 A2994 RMK A01 T02860130  RH  038%=      5-min Rain = 0
KGO1 200752Z 19015KT 29/13 A2994 RMK A01 T02860130  RH  038%=      5-min Rain = 0
KGO1 200753Z 20015KT 29/13 A2994 RMK A01 T02860130  RH  038%=      5-min Rain = 0
KGO1 200754Z 19018KT 29/13 A2994 RMK A01 T02860130  RH  038%=      5-min Rain = 0
KGO1 200755Z 19016KT 29/13 A2994 RMK A01 T02870130  RH  038%=      5-min Rain = 0
KGO1 200756Z 19018KT 29/13 A2994 RMK A01 T02870130  RH  038%=      5-min Rain = 0
KGO1 200757Z 19017KT 29/13 A2994 RMK A01 T02880130  RH  038%=      5-min Rain = 0
KGO1 200758Z 19016KT 29/13 A2994 RMK A01 T02880130  RH  038%=      5-min Rain = 0
KGO1 200759Z 19015KT 29/13 A2994 RMK A01 T02880130  RH  038%=      5-min Rain = 0
KGO1 200800Z 19018KT 29/13 A2994 RMK A01 T02880130  RH  038%=      5-min Rain = 0
KGO1 200801Z 19014KT 29/13 A2994 RMK A01 T02870130  RH  038%=      5-min Rain = 0
KGO1 200802Z 19015KT 29/13 A2994 RMK A01 T02870130  RH  038%=      5-min Rain = 0
KGO1 200803Z 19016KT 29/13 A2994 RMK A01 T02860130  RH  038%=      5-min Rain = 0
KGO1 200804Z 19015KT 29/13 A2994 RMK A01 T02860130  RH  038%=      5-min Rain = 0
KGO1 200805Z 19017KT 29/13 A2994 RMK A01 T02860130  RH  038%=      5-min Rain = 0
KGO1 200806Z 19017KT 29/13 A2994 RMK A01 T02860130  RH  038%=      5-min Rain = 0
KGO1 200807Z 20016KT 29/13 A2994 RMK A01 T02860131  RH  038%=      5-min Rain = 0
KGO1 200808Z 19015G20KT 29/13 A2994 RMK A01 T02860131  RH  038%=      5-min Rain = 0
KGO1 200809Z 20017KT 29/13 A2994 RMK A01 T02860131  RH  038%=      5-min Rain = 0
KGO1 200810Z 19018KT 29/13 A2994 RMK A01 T02860131  RH  038%=      5-min Rain = 0
KGO1 200811Z 20015KT 29/13 A2994 RMK A01 T02860131  RH  038%=      5-min Rain = 0
KGO1 200812Z 19018KT 29/13 A2994 RMK A01 T02860131  RH  038%=      5-min Rain = 0
KGO1 200813Z 19019G25KT 29/13 A2994 RMK A01 T02860131  RH  039%=      5-min Rain = 0
KGO1 200814Z 20017KT 29/13 A2994 RMK A01 T02860131  RH  038%=      5-min Rain = 0
KGO1 200815Z 19018KT 29/13 A2994 RMK A01 T02870132  RH  038%=      5-min Rain = 0
KGO1 200816Z 19018KT 29/13 A2993 RMK A01 T02860131  RH  038%=      5-min Rain = 0
KGO1 200817Z 19017KT 29/13 A2993 RMK A01 T02860131  RH  038%=      5-min Rain = 0
KGO1 200818Z 19016KT 29/13 A2993 RMK A01 T02860131  RH  039%=      5-min Rain = 0
KGO1 200819Z 20016KT 29/13 A2993 RMK A01 T02860132  RH  039%=      5-min Rain = 0
KGO1 200820Z 20015KT 29/13 A2993 RMK A01 T02850132  RH  039%=      5-min Rain = 0
KGO1 200821Z 19020KT 28/13 A2993 RMK A01 T02840131  RH  039%=      5-min Rain = 0
KGO1 200822Z 20018KT 28/13 A2993 RMK A01 T02840132  RH  039%=      5-min Rain = 0
KGO1 200823Z 20018KT 29/13 A2993 RMK A01 T02850132  RH  039%=      5-min Rain = 0
KGO1 200824Z 20018KT 29/13 A2993 RMK A01 T02850133  RH  039%=      5-min Rain = 0
KGO1 200825Z 20019KT 29/13 A2993 RMK A01 T02850132  RH  039%=      5-min Rain = 0
KGO1 200826Z 20017KT 29/13 A2993 RMK A01 T02850133  RH  039%=      5-min Rain = 0
KGO1 200827Z 20019KT 29/13 A2993 RMK A01 T02850133  RH  039%=      5-min Rain = 0
KGO1 200828Z 20018KT 29/13 A2993 RMK A01 T02850133  RH  039%=      5-min Rain = 0
KGO1 200829Z 19019KT 29/13 A2993 RMK A01 T02850133  RH  039%=      5-min Rain = 0
KGO1 200830Z 19019KT 29/13 A2993 RMK A01 T02850134  RH  039%=      5-min Rain = 0
KGO1 200831Z 20016G21KT 29/13 A2993 RMK A01 T02850134  RH  039%=      5-min Rain = 0
KGO1 200832Z 19018KT 28/13 A2993 RMK A01 T02840134  RH  040%=      5-min Rain = 0
KGO1 200833Z 19017KT 28/13 A2993 RMK A01 T02840134  RH  040%=      5-min Rain = 0
KGO1 200834Z 20016KT 28/13 A2993 RMK A01 T02830134  RH  040%=      5-min Rain = 0
KGO1 200835Z 19013KT 28/13 A2993 RMK A01 T02820134  RH  040%=      5-min Rain = 0
KGO1 200836Z 19016KT 28/13 A2993 RMK A01 T02820134  RH  040%=      5-min Rain = 0
KGO1 200837Z 20017KT 28/13 A2993 RMK A01 T02810134  RH  040%=      5-min Rain = 0
KGO1 200838Z 20019KT 28/13 A2993 RMK A01 T02810134  RH  040%=      5-min Rain = 0
KGO1 200839Z 19018KT 28/13 A2993 RMK A01 T02830134  RH  040%=      5-min Rain = 0
KGO1 200840Z 19018KT 28/13 A2993 RMK A01 T02830134  RH  040%=      5-min Rain = 0
KGO1 200841Z 19021KT 28/13 A2993 RMK A01 T02830134  RH  040%=      5-min Rain = 0
KGO1 200842Z 19019KT 28/13 A2993 RMK A01 T02840134  RH  040%=      5-min Rain = 0
KGO1 200843Z 19018KT 28/13 A2993 RMK A01 T02840134  RH  040%=      5-min Rain = 0
KGO1 200844Z 19016KT 28/13 A2993 RMK A01 T02840134  RH  040%=      5-min Rain = 0
KGO1 200845Z 19020KT 28/13 A2993 RMK A01 T02830134  RH  040%=      5-min Rain = 0
KGO1 200846Z 19016KT 28/14 A2993 RMK A01 T02830135  RH  040%=      5-min Rain = 0
KGO1 200847Z 19018KT 28/14 A2993 RMK A01 T02830135  RH  040%=      5-min Rain = 0
KGO1 200848Z 19015KT 28/13 A2994 RMK A01 T02820134  RH  040%=      5-min Rain = 0
KGO1 200849Z 19018KT 28/13 A2994 RMK A01 T02820134  RH  040%=      5-min Rain = 0
KGO1 200850Z 20017KT 28/14 A2994 RMK A01 T02820135  RH  040%=      5-min Rain = 0
KGO1 200851Z 19018KT 28/14 A2994 RMK A01 T02810135  RH  040%=      5-min Rain = 0
KGO1 200852Z 20016KT 28/13 A2994 RMK A01 T02810134  RH  040%=      5-min Rain = 0
KGO1 200853Z 19015KT 28/14 A2994 RMK A01 T02810135  RH  041%=      5-min Rain = 0
KGO1 200854Z 20017KT 28/13 A2993 RMK A01 T02800134  RH  041%=      5-min Rain = 0
KGO1 200855Z 20016KT 28/13 A2994 RMK A01 T02800134  RH  041%=      5-min Rain = 0
KGO1 200856Z 19018KT 28/13 A2993 RMK A01 T02800134  RH  041%=      5-min Rain = 0
KGO1 200857Z 19015KT 28/13 A2993 RMK A01 T02800133  RH  040%=      5-min Rain = 0
KGO1 200858Z 19014KT 28/13 A2993 RMK A01 T02800133  RH  040%=      5-min Rain = 0
KGO1 200859Z 19015KT 28/13 A2993 RMK A01 T02800133  RH  040%=      5-min Rain = 0
KGO1 200900Z 19017KT 28/13 A2993 RMK A01 T02790133  RH  041%=      5-min Rain = 0
KGO1 200901Z 19017KT 28/13 A2993 RMK A01 T02790132  RH  040%=      5-min Rain = 0
KGO1 200902Z 20013KT 28/13 A2993 RMK A01 T02800132  RH  040%=      5-min Rain = 0
KGO1 200903Z 19015KT 28/13 A2993 RMK A01 T02800133  RH  040%=      5-min Rain = 0
KGO1 200904Z 19017KT 28/13 A2993 RMK A01 T02800133  RH  040%=      5-min Rain = 0
KGO1 200905Z 19016G21KT 28/13 A2993 RMK A01 T02800133  RH  040%=      5-min Rain = 0
KGO1 200906Z 20018KT 28/13 A2993 RMK A01 T02800133  RH  040%=      5-min Rain = 0
KGO1 200907Z 20016KT 28/13 A2993 RMK A01 T02800133  RH  040%=      5-min Rain = 0
KGO1 200908Z 20015KT 28/13 A2994 RMK A01 T02800133  RH  040%=      5-min Rain = 0
KGO1 200909Z 20014KT 28/13 A2994 RMK A01 T02800134  RH  041%=      5-min Rain = 0
KGO1 200910Z 20015KT 28/13 A2994 RMK A01 T02790134  RH  041%=      5-min Rain = 0
KGO1 200911Z 20014KT 28/13 A2994 RMK A01 T02780133  RH  041%=      5-min Rain = 0
KGO1 200912Z 20015KT 28/13 A2994 RMK A01 T02780134  RH  041%=      5-min Rain = 0
KGO1 200913Z 19017KT 28/13 A2994 RMK A01 T02780134  RH  041%=      5-min Rain = 0
KGO1 200914Z 19016KT 28/13 A2994 RMK A01 T02780134  RH  041%=      5-min Rain = 0
KGO1 200915Z 19016KT 28/13 A2994 RMK A01 T02790134  RH  041%=      5-min Rain = 0
KGO1 200916Z 19016KT 28/13 A2994 RMK A01 T02790134  RH  041%=      5-min Rain = 0
KGO1 200917Z 20012KT 28/13 A2994 RMK A01 T02790134  RH  041%=      5-min Rain = 0
KGO1 200918Z 20012KT 28/13 A2994 RMK A01 T02790134  RH  041%=      5-min Rain = 0
KGO1 200919Z 20014KT 28/13 A2994 RMK A01 T02770134  RH  041%=      5-min Rain = 0
KGO1 200920Z 20014KT 28/13 A2994 RMK A01 T02770134  RH  041%=      5-min Rain = 0
KGO1 200921Z 20017G22KT 28/13 A2994 RMK A01 T02770134  RH  041%=      5-min Rain = 0
KGO1 200922Z 20014KT 28/14 A2994 RMK A01 T02790135  RH  041%=      5-min Rain = 0
KGO1 200923Z 20016KT 28/14 A2994 RMK A01 T02800135  RH  041%=      5-min Rain = 0
KGO1 200924Z 20017KT 28/14 A2994 RMK A01 T02790135  RH  041%=      5-min Rain = 0
KGO1 200925Z 20017KT 28/14 A2994 RMK A01 T02800135  RH  041%=      5-min Rain = 0
KGO1 200926Z 20017KT 28/14 A2994 RMK A01 T02800135  RH  041%=      5-min Rain = 0
KGO1 200927Z 20017KT 28/13 A2994 RMK A01 T02800134  RH  041%=      5-min Rain = 0
KGO1 200928Z 20014KT 28/13 A2994 RMK A01 T02810134  RH  040%=      5-min Rain = 0
KGO1 200929Z 20016KT 28/14 A2994 RMK A01 T02810135  RH  041%=      5-min Rain = 0
KGO1 200930Z 20018KT 28/13 A2994 RMK A01 T02800134  RH  041%=      5-min Rain = 0
KGO1 200931Z 19015KT 28/13 A2994 RMK A01 T02810134  RH  040%=      5-min Rain = 0
KGO1 200932Z 19014KT 28/13 A2994 RMK A01 T02810134  RH  040%=      5-min Rain = 0
KGO1 200933Z 19016KT 28/13 A2994 RMK A01 T02810134  RH  040%=      5-min Rain = 0
KGO1 200934Z 19015KT 28/13 A2994 RMK A01 T02800134  RH  041%=      5-min Rain = 0
KGO1 200935Z 19014KT 28/13 A2994 RMK A01 T02800134  RH  041%=      5-min Rain = 0
KGO1 200936Z 18015KT 28/13 A2994 RMK A01 T02790134  RH  041%=      5-min Rain = 0
KGO1 200937Z 18013KT 28/13 A2994 RMK A01 T02800134  RH  041%=      5-min Rain = 0
KGO1 200938Z 18012KT 28/13 A2994 RMK A01 T02790134  RH  041%=      5-min Rain = 0
KGO1 200939Z 18012KT 28/13 A2994 RMK A01 T02780134  RH  041%=      5-min Rain = 0
KGO1 200940Z 18012KT 28/13 A2994 RMK A01 T02770134  RH  041%=      5-min Rain = 0
KGO1 200941Z 18012KT 28/13 A2994 RMK A01 T02760134  RH  041%=      5-min Rain = 0
KGO1 200942Z 18013KT 28/13 A2994 RMK A01 T02760134  RH  042%=      5-min Rain = 0
KGO1 200943Z 17014KT 28/13 A2994 RMK A01 T02760134  RH  042%=      5-min Rain = 0
KGO1 200944Z 18013KT 28/13 A2994 RMK A01 T02760134  RH  042%=      5-min Rain = 0
KGO1 200945Z 18014KT 28/13 A2994 RMK A01 T02770134  RH  041%=      5-min Rain = 0
KGO1 200946Z 19013KT 28/13 A2994 RMK A01 T02770134  RH  041%=      5-min Rain = 0
KGO1 200947Z 18012KT 28/13 A2994 RMK A01 T02770134  RH  041%=      5-min Rain = 0
KGO1 200948Z 19011KT 28/13 A2994 RMK A01 T02770134  RH  041%=      5-min Rain = 0
KGO1 200949Z 18012KT 28/13 A2994 RMK A01 T02760134  RH  042%=      5-min Rain = 0
KGO1 200950Z 18013KT 28/13 A2994 RMK A01 T02750134  RH  042%=      5-min Rain = 0
KGO1 200951Z 18012KT 28/13 A2994 RMK A01 T02760134  RH  042%=      5-min Rain = 0
KGO1 200952Z 17012KT 28/13 A2994 RMK A01 T02760134  RH  042%=      5-min Rain = 0
KGO1 200953Z 18011KT 28/13 A2994 RMK A01 T02760134  RH  042%=      5-min Rain = 0
KGO1 200954Z 18010KT 28/14 A2994 RMK A01 T02750135  RH  042%=      5-min Rain = 0
KGO1 200955Z 17010KT 27/13 A2994 RMK A01 T02740134  RH  042%=      5-min Rain = 0
KGO1 200956Z 17010KT 27/13 A2994 RMK A01 T02720133  RH  042%=      5-min Rain = 0
KGO1 200957Z 17012KT 27/13 A2994 RMK A01 T02720134  RH  042%=      5-min Rain = 0
KGO1 200958Z 18011KT 27/13 A2994 RMK A01 T02720134  RH  042%=      5-min Rain = 0
KGO1 200959Z 18010KT 27/13 A2994 RMK A01 T02720134  RH  042%=      5-min Rain = 0
KGO1 201000Z 17011KT 27/13 A2994 RMK A01 T02720134  RH  042%=      5-min Rain = 0
KGO1 201001Z 18012KT 27/13 A2994 RMK A01 T02720134  RH  043%=      5-min Rain = 0
KGO1 201002Z 19010KT 27/13 A2994 RMK A01 T02710134  RH  043%=      5-min Rain = 0
KGO1 201003Z 18009KT 27/13 A2994 RMK A01 T02710134  RH  043%=      5-min Rain = 0
KGO1 201004Z 17011KT 27/13 A2994 RMK A01 T02710134  RH  043%=      5-min Rain = 0
KGO1 201005Z 17013KT 27/14 A2994 RMK A01 T02710135  RH  043%=      5-min Rain = 0
KGO1 201006Z 18014KT 27/14 A2994 RMK A01 T02720135  RH  043%=      5-min Rain = 0
KGO1 201007Z 18012KT 27/14 A2994 RMK A01 T02730135  RH  043%=      5-min Rain = 0
KGO1 201008Z 17011KT 27/14 A2994 RMK A01 T02730135  RH  042%=      5-min Rain = 0
KGO1 201009Z 18011KT 27/14 A2994 RMK A01 T02740135  RH  042%=      5-min Rain = 0
KGO1 201010Z 18011KT 27/14 A2994 RMK A01 T02730135  RH  043%=      5-min Rain = 0
KGO1 201011Z 18013KT 27/14 A2994 RMK A01 T02720135  RH  043%=      5-min Rain = 0
KGO1 201012Z 17011KT 27/14 A2994 RMK A01 T02730135  RH  043%=      5-min Rain = 0
KGO1 201013Z 18011KT 27/14 A2994 RMK A01 T02730135  RH  043%=      5-min Rain = 0
KGO1 201014Z 18011KT 27/14 A2994 RMK A01 T02730135  RH  043%=      5-min Rain = 0
KGO1 201015Z 17011KT 27/14 A2994 RMK A01 T02720135  RH  043%=      5-min Rain = 0
KGO1 201016Z 17011KT 27/14 A2994 RMK A01 T02720135  RH  043%=      5-min Rain = 0
KGO1 201017Z 18012KT 27/14 A2994 RMK A01 T02710136  RH  043%=      5-min Rain = 0
KGO1 201018Z 17011KT 27/14 A2994 RMK A01 T02700136  RH  043%=      5-min Rain = 0
KGO1 201019Z 18010KT 27/14 A2994 RMK A01 T02700136  RH  044%=      5-min Rain = 0
KGO1 201020Z 18011KT 27/14 A2994 RMK A01 T02700136  RH  044%=      5-min Rain = 0
KGO1 201021Z 18011KT 27/14 A2994 RMK A01 T02700136  RH  044%=      5-min Rain = 0
KGO1 201022Z 18010KT 27/14 A2994 RMK A01 T02700136  RH  044%=      5-min Rain = 0
KGO1 201023Z 17010KT 27/14 A2994 RMK A01 T02690136  RH  044%=      5-min Rain = 0
KGO1 201024Z 16011KT 27/14 A2994 RMK A01 T02680136  RH  044%=      5-min Rain = 0
KGO1 201025Z 17011KT 27/14 A2994 RMK A01 T02680136  RH  044%=      5-min Rain = 0
KGO1 201026Z 17012KT 27/14 A2994 RMK A01 T02690137  RH  044%=      5-min Rain = 0
KGO1 201027Z 18012KT 27/14 A2994 RMK A01 T02690137  RH  044%=      5-min Rain = 0
KGO1 201028Z 18013KT 27/14 A2994 RMK A01 T02700137  RH  044%=      5-min Rain = 0
KGO1 201029Z 17009KT 27/14 A2994 RMK A01 T02710137  RH  044%=      5-min Rain = 0
KGO1 201030Z 17011KT 27/14 A2994 RMK A01 T02710137  RH  044%=      5-min Rain = 0
KGO1 201031Z 17013KT 27/14 A2994 RMK A01 T02710137  RH  044%=      5-min Rain = 0
KGO1 201032Z 17013KT 27/14 A2994 RMK A01 T02710137  RH  044%=      5-min Rain = 0
KGO1 201033Z 17012KT 27/14 A2994 RMK A01 T02710137  RH  044%=      5-min Rain = 0
KGO1 201034Z 17012KT 27/14 A2994 RMK A01 T02710137  RH  044%=      5-min Rain = 0
KGO1 201035Z 18011KT 27/14 A2994 RMK A01 T02710138  RH  044%=      5-min Rain = 0
KGO1 201036Z 17011KT 27/14 A2994 RMK A01 T02700137  RH  044%=      5-min Rain = 0
KGO1 201037Z 17012KT 27/14 A2994 RMK A01 T02700138  RH  044%=      5-min Rain = 0
KGO1 201038Z 18012KT 27/14 A2994 RMK A01 T02700138  RH  044%=      5-min Rain = 0
KGO1 201039Z 18012KT 27/14 A2994 RMK A01 T02700138  RH  044%=      5-min Rain = 0
KGO1 201040Z 18013KT 27/14 A2994 RMK A01 T02700138  RH  044%=      5-min Rain = 0
KGO1 201041Z 17013KT 27/14 A2994 RMK A01 T02710138  RH  044%=      5-min Rain = 0
KGO1 201042Z 18014KT 27/14 A2994 RMK A01 T02710139  RH  044%=      5-min Rain = 0
KGO1 201043Z 18013KT 27/14 A2994 RMK A01 T02710139  RH  044%=      5-min Rain = 0
KGO1 201044Z 18013KT 27/14 A2994 RMK A01 T02710139  RH  044%=      5-min Rain = 0
KGO1 201045Z 18015KT 27/14 A2994 RMK A01 T02710139  RH  044%=      5-min Rain = 0
KGO1 201046Z 18013KT 27/14 A2994 RMK A01 T02720139  RH  044%=      5-min Rain = 0
KGO1 201047Z 18013KT 27/14 A2994 RMK A01 T02720139  RH  044%=      5-min Rain = 0
KGO1 201048Z 19014KT 27/14 A2994 RMK A01 T02720139  RH  044%=      5-min Rain = 0
KGO1 201049Z 18014KT 27/14 A2995 RMK A01 T02710139  RH  044%=      5-min Rain = 0
KGO1 201050Z 17012KT 27/14 A2994 RMK A01 T02720140  RH  044%=      5-min Rain = 0
KGO1 201051Z 18013KT 27/14 A2994 RMK A01 T02720140  RH  044%=      5-min Rain = 0
KGO1 201052Z 18016KT 27/14 A2994 RMK A01 T02720140  RH  044%=      5-min Rain = 0
KGO1 201053Z 18014KT 27/14 A2994 RMK A01 T02720140  RH  044%=      5-min Rain = 0
KGO1 201054Z 18014KT 27/14 A2994 RMK A01 T02720140  RH  044%=      5-min Rain = 0
KGO1 201055Z 18016KT 27/14 A2994 RMK A01 T02720140  RH  044%=      5-min Rain = 0
KGO1 201056Z 18016KT 27/14 A2995 RMK A01 T02730141  RH  044%=      5-min Rain = 0
KGO1 201057Z 18014KT 27/14 A2995 RMK A01 T02730141  RH  044%=      5-min Rain = 0
KGO1 201058Z 18014KT 27/14 A2995 RMK A01 T02730141  RH  044%=      5-min Rain = 0
KGO1 201059Z 19015KT 27/14 A2994 RMK A01 T02720141  RH  044%=      5-min Rain = 0
KGO1 201100Z 18014KT 27/14 A2994 RMK A01 T02720141  RH  045%=      5-min Rain = 0
KGO1 201101Z 18016KT 27/14 A2994 RMK A01 T02710141  RH  045%=      5-min Rain = 0
KGO1 201102Z 19015KT 27/14 A2994 RMK A01 T02710141  RH  045%=      5-min Rain = 0
KGO1 201103Z 19014KT 27/14 A2994 RMK A01 T02710141  RH  045%=      5-min Rain = 0
KGO1 201104Z 19018KT 27/14 A2994 RMK A01 T02710141  RH  045%=      5-min Rain = 0
KGO1 201105Z 19015KT 27/14 A2994 RMK A01 T02710142  RH  045%=      5-min Rain = 0
KGO1 201106Z 19015KT 27/14 A2994 RMK A01 T02710142  RH  045%=      5-min Rain = 0
KGO1 201107Z 19017KT 27/14 A2994 RMK A01 T02710142  RH  045%=      5-min Rain = 0
KGO1 201108Z 19017KT 27/14 A2994 RMK A01 T02710142  RH  045%=      5-min Rain = 0
KGO1 201109Z 19019KT 27/14 A2994 RMK A01 T02720142  RH  045%=      5-min Rain = 0
KGO1 201110Z 20016KT 27/14 A2994 RMK A01 T02720142  RH  045%=      5-min Rain = 0
KGO1 201111Z 19018KT 27/14 A2994 RMK A01 T02720142  RH  045%=      5-min Rain = 0
KGO1 201112Z 20018G23KT 27/14 A2994 RMK A01 T02720142  RH  045%=      5-min Rain = 0
KGO1 201113Z 20019KT 27/14 A2994 RMK A01 T02720143  RH  045%=      5-min Rain = 0
KGO1 201114Z 20016KT 27/14 A2994 RMK A01 T02720142  RH  045%=      5-min Rain = 0
KGO1 201115Z 20016G21KT 27/14 A2994 RMK A01 T02720142  RH  045%=      5-min Rain = 0
KGO1 201116Z 20016KT 27/14 A2994 RMK A01 T02710143  RH  045%=      5-min Rain = 0
KGO1 201117Z 19015G20KT 27/14 A2994 RMK A01 T02710142  RH  045%=      5-min Rain = 0
KGO1 201118Z 20016KT 27/14 A2994 RMK A01 T02700142  RH  045%=      5-min Rain = 0
KGO1 201119Z 19018G23KT 27/14 A2994 RMK A01 T02700142  RH  045%=      5-min Rain = 0
KGO1 201120Z 19016KT 27/14 A2994 RMK A01 T02700142  RH  045%=      5-min Rain = 0
KGO1 201121Z 19017KT 27/14 A2994 RMK A01 T02710143  RH  045%=      5-min Rain = 0
KGO1 201122Z 20015KT 27/14 A2994 RMK A01 T02710143  RH  045%=      5-min Rain = 0
KGO1 201123Z 19019KT 27/14 A2994 RMK A01 T02710143  RH  045%=      5-min Rain = 0
KGO1 201124Z 19016KT 27/14 A2994 RMK A01 T02710143  RH  045%=      5-min Rain = 0
KGO1 201125Z 20018KT 27/14 A2994 RMK A01 T02710143  RH  045%=      5-min Rain = 0
KGO1 201126Z 19018KT 27/14 A2994 RMK A01 T02710143  RH  045%=      5-min Rain = 0
KGO1 201127Z 19019KT 27/14 A2994 RMK A01 T02710143  RH  045%=      5-min Rain = 0
KGO1 201128Z 20017KT 27/14 A2994 RMK A01 T02710143  RH  045%=      5-min Rain = 0
KGO1 201129Z 20017KT 27/14 A2994 RMK A01 T02710143  RH  045%=      5-min Rain = 0
KGO1 201130Z 20019KT 27/14 A2994 RMK A01 T02710143  RH  046%=      5-min Rain = 0
KGO1 201131Z 19018G23KT 27/14 A2994 RMK A01 T02710143  RH  045%=      5-min Rain = 0
KGO1 201132Z 20016KT 27/14 A2994 RMK A01 T02710143  RH  045%=      5-min Rain = 0
KGO1 201133Z 19018KT 27/14 A2994 RMK A01 T02710143  RH  046%=      5-min Rain = 0
KGO1 201134Z 19015G20KT 27/14 A2994 RMK A01 T02700143  RH  046%=      5-min Rain = 0
KGO1 201135Z 19014KT 27/14 A2994 RMK A01 T02700143  RH  046%=      5-min Rain = 0
KGO1 201136Z 20016KT 27/14 A2994 RMK A01 T02690143  RH  046%=      5-min Rain = 0
KGO1 201137Z 20017KT 27/14 A2994 RMK A01 T02690143  RH  046%=      5-min Rain = 0
KGO1 201138Z 19016KT 27/14 A2994 RMK A01 T02690143  RH  046%=      5-min Rain = 0
KGO1 201139Z 19017KT 27/14 A2994 RMK A01 T02690143  RH  046%=      5-min Rain = 0
KGO1 201140Z 19018KT 27/14 A2994 RMK A01 T02690143  RH  046%=      5-min Rain = 0
KGO1 201141Z 19018KT 27/14 A2994 RMK A01 T02690143  RH  046%=      5-min Rain = 0
KGO1 201142Z 19015KT 27/14 A2994 RMK A01 T02700143  RH  046%=      5-min Rain = 0
KGO1 201143Z 19016KT 27/14 A2994 RMK A01 T02690143  RH  046%=      5-min Rain = 0
KGO1 201144Z 19018KT 27/14 A2994 RMK A01 T02690143  RH  046%=      5-min Rain = 0
KGO1 201145Z 19015KT 27/14 A2994 RMK A01 T02680143  RH  046%=      5-min Rain = 0
KGO1 201146Z 19015KT 27/14 A2994 RMK A01 T02690143  RH  046%=      5-min Rain = 0
KGO1 201147Z 19017KT 27/14 A2994 RMK A01 T02680143  RH  046%=      5-min Rain = 0
KGO1 201148Z 19013KT 27/14 A2994 RMK A01 T02680143  RH  046%=      5-min Rain = 0
KGO1 201149Z 19015KT 27/14 A2994 RMK A01 T02680143  RH  046%=      5-min Rain = 0
KGO1 201150Z 19013KT 27/14 A2994 RMK A01 T02670143  RH  047%=      5-min Rain = 0
KGO1 201151Z 19013G18KT 27/14 A2994 RMK A01 T02660143  RH  047%=      5-min Rain = 0
KGO1 201152Z 19015KT 27/14 A2994 RMK A01 T02660143  RH  047%=      5-min Rain = 0
KGO1 201153Z 19016KT 27/14 A2994 RMK A01 T02660143  RH  047%=      5-min Rain = 0
KGO1 201154Z 18015KT 27/14 A2994 RMK A01 T02670144  RH  047%=      5-min Rain = 0
KGO1 201155Z 18015KT 27/14 A2995 RMK A01 T02670144  RH  047%=      5-min Rain = 0
KGO1 201156Z 18014KT 27/14 A2995 RMK A01 T02670144  RH  047%=      5-min Rain = 0
KGO1 201157Z 18013KT 27/14 A2994 RMK A01 T02670144  RH  047%=      5-min Rain = 0
KGO1 201158Z 18011KT 27/14 A2995 RMK A01 T02660144  RH  047%=      5-min Rain = 0
KGO1 201159Z 18015KT 27/14 A2995 RMK A01 T02660144  RH  047%=      5-min Rain = 0
KGO1 201200Z 18014KT 27/14 A2995 RMK A01 T02660144  RH  047%=      5-min Rain = 0
KGO1 201201Z 18012KT 27/14 A2995 RMK A01 T02660144  RH  047%=      5-min Rain = 0
KGO1 201202Z 18014KT 27/14 A2995 RMK A01 T02660144  RH  047%=      5-min Rain = 0
KGO1 201203Z 18013KT 27/14 A2995 RMK A01 T02660144  RH  047%=      5-min Rain = 0
KGO1 201204Z 18012KT 27/15 A2995 RMK A01 T02660145  RH  047%=      5-min Rain = 0
KGO1 201205Z 18012KT 27/15 A2995 RMK A01 T02660145  RH  047%=      5-min Rain = 0
KGO1 201206Z 18012KT 27/15 A2995 RMK A01 T02650145  RH  047%=      5-min Rain = 0
KGO1 201207Z 18013KT 27/15 A2995 RMK A01 T02650145  RH  048%=      5-min Rain = 0
KGO1 201208Z 18012KT 27/15 A2995 RMK A01 T02650145  RH  048%=      5-min Rain = 0
KGO1 201209Z 18014G20KT 26/15 A2995 RMK A01 T02640145  RH  048%=      5-min Rain = 0
KGO1 201210Z 19016KT 27/15 A2995 RMK A01 T02650145  RH  048%=      5-min Rain = 0
KGO1 201211Z 18014KT 27/15 A2995 RMK A01 T02660145  RH  047%=      5-min Rain = 0
KGO1 201212Z 18013KT 27/15 A2995 RMK A01 T02660145  RH  047%=      5-min Rain = 0
KGO1 201213Z 19013KT 27/15 A2995 RMK A01 T02670145  RH  047%=      5-min Rain = 0
KGO1 201214Z 19011KT 27/15 A2995 RMK A01 T02680145  RH  047%=      5-min Rain = 0
KGO1 201215Z 19012G17KT 27/15 A2995 RMK A01 T02680146  RH  047%=      5-min Rain = 0
KGO1 201216Z 19013KT 27/15 A2995 RMK A01 T02670145  RH  047%=      5-min Rain = 0
KGO1 201217Z 18012KT 27/15 A2995 RMK A01 T02680145  RH  047%=      5-min Rain = 0
KGO1 201218Z 19015KT 27/15 A2995 RMK A01 T02680145  RH  047%=      5-min Rain = 0
KGO1 201219Z 18017KT 27/15 A2995 RMK A01 T02680145  RH  047%=      5-min Rain = 0
KGO1 201220Z 18012KT 27/15 A2995 RMK A01 T02680146  RH  047%=      5-min Rain = 0
KGO1 201221Z 18011KT 27/15 A2995 RMK A01 T02680146  RH  047%=      5-min Rain = 0
KGO1 201222Z 18013KT 27/15 A2995 RMK A01 T02680146  RH  047%=      5-min Rain = 0
KGO1 201223Z 18012KT 27/15 A2995 RMK A01 T02680146  RH  047%=      5-min Rain = 0
KGO1 201224Z 18013KT 27/15 A2995 RMK A01 T02680146  RH  047%=      5-min Rain = 0
KGO1 201225Z 18013KT 27/15 A2995 RMK A01 T02680146  RH  047%=      5-min Rain = 0
KGO1 201226Z 17010KT 27/15 A2995 RMK A01 T02680146  RH  047%=      5-min Rain = 0
KGO1 201227Z 17009KT 27/15 A2995 RMK A01 T02680147  RH  047%=      5-min Rain = 0
KGO1 201228Z 18011KT 27/15 A2995 RMK A01 T02670146  RH  047%=      5-min Rain = 0
KGO1 201229Z 17011KT 27/15 A2995 RMK A01 T02670146  RH  048%=      5-min Rain = 0
KGO1 201230Z 17015KT 27/15 A2995 RMK A01 T02670146  RH  047%=      5-min Rain = 0
KGO1 201231Z 18015KT 27/15 A2995 RMK A01 T02680146  RH  047%=      5-min Rain = 0
KGO1 201232Z 17011G16KT 27/15 A2995 RMK A01 T02680147  RH  047%=      5-min Rain = 0
KGO1 201233Z 17011KT 27/15 A2995 RMK A01 T02680147  RH  047%=      5-min Rain = 0
KGO1 201234Z 16011KT 27/15 A2995 RMK A01 T02680147  RH  047%=      5-min Rain = 0
KGO1 201235Z 17011KT 27/15 A2995 RMK A01 T02680148  RH  047%=      5-min Rain = 0
KGO1 201236Z 17010KT 27/15 A2995 RMK A01 T02680148  RH  048%=      5-min Rain = 0
KGO1 201237Z 16009KT 27/15 A2995 RMK A01 T02680147  RH  048%=      5-min Rain = 0
KGO1 201238Z 17009KT 27/15 A2995 RMK A01 T02680148  RH  048%=      5-min Rain = 0
KGO1 201239Z 17011KT 27/15 A2995 RMK A01 T02680148  RH  048%=      5-min Rain = 0
KGO1 201240Z 17011KT 27/15 A2995 RMK A01 T02680148  RH  048%=      5-min Rain = 0
KGO1 201241Z 17010KT 27/15 A2995 RMK A01 T02680148  RH  048%=      5-min Rain = 0
KGO1 201242Z 17009KT 27/15 A2995 RMK A01 T02690149  RH  048%=      5-min Rain = 0
KGO1 201243Z 17009KT 27/15 A2995 RMK A01 T02690149  RH  048%=      5-min Rain = 0
KGO1 201244Z 17009KT 27/15 A2995 RMK A01 T02690149  RH  048%=      5-min Rain = 0
KGO1 201245Z 17008KT 27/15 A2995 RMK A01 T02700149  RH  048%=      5-min Rain = 0
KGO1 201246Z 17009KT 27/15 A2995 RMK A01 T02700149  RH  048%=      5-min Rain = 0
KGO1 201247Z 17009KT 27/15 A2995 RMK A01 T02700149  RH  047%=      5-min Rain = 0
KGO1 201248Z 18012KT 27/15 A2995 RMK A01 T02700149  RH  047%=      5-min Rain = 0
KGO1 201249Z 18013KT 27/15 A2995 RMK A01 T02700148  RH  047%=      5-min Rain = 0
KGO1 201250Z 19011KT 27/15 A2995 RMK A01 T02710148  RH  047%=      5-min Rain = 0
KGO1 201251Z 19012KT 27/15 A2995 RMK A01 T02710148  RH  047%=      5-min Rain = 0
KGO1 201252Z 18011KT 27/15 A2995 RMK A01 T02720148  RH  047%=      5-min Rain = 0
KGO1 201253Z 18012KT 27/15 A2995 RMK A01 T02720149  RH  047%=      5-min Rain = 0
KGO1 201254Z 19014KT 27/15 A2995 RMK A01 T02720148  RH  047%=      5-min Rain = 0
KGO1 201255Z 19014KT 27/15 A2995 RMK A01 T02720148  RH  046%=      5-min Rain = 0
KGO1 201256Z 19013KT 27/15 A2995 RMK A01 T02730148  RH  046%=      5-min Rain = 0
KGO1 201257Z 19011KT 27/15 A2995 RMK A01 T02730148  RH  046%=      5-min Rain = 0
KGO1 201258Z 18010KT 27/15 A2996 RMK A01 T02740149  RH  046%=      5-min Rain = 0
KGO1 201259Z 19013KT 27/15 A2996 RMK A01 T02740149  RH  046%=      5-min Rain = 0
KGO1 201300Z 19015KT 27/15 A2996 RMK A01 T02740148  RH  046%=      5-min Rain = 0
KGO1 201301Z 20015KT 28/15 A2996 RMK A01 T02750148  RH  046%=      5-min Rain = 0
KGO1 201302Z 20012KT 27/15 A2996 RMK A01 T02740148  RH  046%=      5-min Rain = 0
KGO1 201303Z 19013KT 28/15 A2996 RMK A01 T02750149  RH  046%=      5-min Rain = 0
KGO1 201304Z 19011KT 28/15 A2996 RMK A01 T02750149  RH  046%=      5-min Rain = 0
KGO1 201305Z 20010KT 28/15 A2996 RMK A01 T02750149  RH  046%=      5-min Rain = 0
KGO1 201306Z 20014KT 28/15 A2996 RMK A01 T02760149  RH  046%=      5-min Rain = 0
KGO1 201307Z 20013KT 28/15 A2996 RMK A01 T02760148  RH  046%=      5-min Rain = 0
KGO1 201308Z 20010G15KT 28/15 A2996 RMK A01 T02760148  RH  046%=      5-min Rain = 0
KGO1 201309Z 20014G19KT 28/15 A2996 RMK A01 T02770149  RH  046%=      5-min Rain = 0
KGO1 201310Z 19017KT 28/15 A2996 RMK A01 T02770147  RH  045%=      5-min Rain = 0
KGO1 201311Z 20013KT 28/15 A2996 RMK A01 T02770148  RH  045%=      5-min Rain = 0
KGO1 201312Z 20015KT 28/15 A2996 RMK A01 T02770149  RH  045%=      5-min Rain = 0
KGO1 201313Z 19012KT 28/15 A2996 RMK A01 T02770149  RH  046%=      5-min Rain = 0
KGO1 201314Z 19017KT 28/15 A2996 RMK A01 T02770149  RH  046%=      5-min Rain = 0
KGO1 201315Z 20013KT 28/15 A2996 RMK A01 T02770149  RH  045%=      5-min Rain = 0
KGO1 201316Z 19013KT 28/15 A2996 RMK A01 T02780150  RH  046%=      5-min Rain = 0
KGO1 201317Z 19013KT 28/15 A2996 RMK A01 T02780150  RH  045%=      5-min Rain = 0
KGO1 201318Z 19013G21KT 28/15 A2996 RMK A01 T02780149  RH  045%=      5-min Rain = 0
KGO1 201319Z 19015KT 28/15 A2996 RMK A01 T02790149  RH  045%=      5-min Rain = 0
KGO1 201320Z 19013KT 28/15 A2996 RMK A01 T02790149  RH  045%=      5-min Rain = 0
KGO1 201321Z 19012KT 28/15 A2996 RMK A01 T02790149  RH  045%=      5-min Rain = 0
KGO1 201322Z 19010KT 28/15 A2996 RMK A01 T02790150  RH  045%=      5-min Rain = 0
KGO1 201323Z 19009KT 28/15 A2996 RMK A01 T02800150  RH  045%=      5-min Rain = 0
KGO1 201324Z 19010KT 28/15 A2996 RMK A01 T02800152  RH  045%=      5-min Rain = 0
KGO1 201325Z 19014KT 28/15 A2996 RMK A01 T02810151  RH  045%=      5-min Rain = 0
KGO1 201326Z 19012KT 28/15 A2996 RMK A01 T02810151  RH  045%=      5-min Rain = 0
KGO1 201327Z 19012KT 28/15 A2996 RMK A01 T02820151  RH  045%=      5-min Rain = 0
KGO1 201328Z 18009G14KT 28/15 A2996 RMK A01 T02820151  RH  045%=      5-min Rain = 0
KGO1 201329Z 18012KT 28/15 A2996 RMK A01 T02820151  RH  045%=      5-min Rain = 0
KGO1 201330Z 18014KT 28/15 A2996 RMK A01 T02820151  RH  045%=      5-min Rain = 0
KGO1 201331Z 19010KT 28/15 A2996 RMK A01 T02820151  RH  045%=      5-min Rain = 0
KGO1 201332Z 19011KT 28/15 A2996 RMK A01 T02830152  RH  045%=      5-min Rain = 0
KGO1 201333Z 20010KT 28/15 A2996 RMK A01 T02830152  RH  045%=      5-min Rain = 0
KGO1 201334Z 19010G15KT 28/15 A2996 RMK A01 T02840153  RH  045%=      5-min Rain = 0
KGO1 201335Z 20013KT 29/15 A2996 RMK A01 T02850151  RH  044%=      5-min Rain = 0
KGO1 201336Z 20011G17KT 28/15 A2996 RMK A01 T02840151  RH  044%=      5-min Rain = 0
KGO1 201337Z 18010KT 28/15 A2996 RMK A01 T02840153  RH  045%=      5-min Rain = 0
KGO1 201338Z 18013G18KT 29/15 A2996 RMK A01 T02850153  RH  045%=      5-min Rain = 0
KGO1 201339Z 19009KT 29/15 A2996 RMK A01 T02850153  RH  044%=      5-min Rain = 0
KGO1 201340Z 18011KT 29/15 A2996 RMK A01 T02860153  RH  044%=      5-min Rain = 0
KGO1 201341Z 18013KT 29/15 A2996 RMK A01 T02860153  RH  044%=      5-min Rain = 0
KGO1 201342Z 18016KT 29/15 A2996 RMK A01 T02860153  RH  044%=      5-min Rain = 0
KGO1 201343Z 19015G21KT 29/15 A2996 RMK A01 T02850152  RH  044%=      5-min Rain = 0
KGO1 201344Z 18012KT 29/15 A2997 RMK A01 T02850153  RH  045%=      5-min Rain = 0
KGO1 201345Z 19011KT 29/15 A2997 RMK A01 T02850153  RH  045%=      5-min Rain = 0
KGO1 201346Z 19012KT 29/15 A2997 RMK A01 T02860154  RH  045%=      5-min Rain = 0
KGO1 201347Z 17010KT 29/15 A2997 RMK A01 T02850153  RH  045%=      5-min Rain = 0
KGO1 201348Z 19012KT 29/16 A2997 RMK A01 T02860155  RH  045%=      5-min Rain = 0
KGO1 201349Z 19012KT 29/15 A2997 RMK A01 T02860154  RH  045%=      5-min Rain = 0
KGO1 201350Z 19012KT 29/15 A2997 RMK A01 T02870153  RH  044%=      5-min Rain = 0
KGO1 201351Z 17012KT 29/15 A2997 RMK A01 T02870154  RH  044%=      5-min Rain = 0
KGO1 201352Z 18013KT 29/16 A2997 RMK A01 T02870155  RH  044%=      5-min Rain = 0
KGO1 201353Z 19013G18KT 29/15 A2997 RMK A01 T02880154  RH  044%=      5-min Rain = 0
KGO1 201354Z 19015KT 29/15 A2997 RMK A01 T02890154  RH  044%=      5-min Rain = 0
KGO1 201355Z 19013KT 29/15 A2997 RMK A01 T02880154  RH  044%=      5-min Rain = 0
KGO1 201356Z 19012KT 29/15 A2997 RMK A01 T02880153  RH  044%=      5-min Rain = 0
KGO1 201357Z 19012KT 29/15 A2997 RMK A01 T02870154  RH  044%=      5-min Rain = 0
KGO1 201358Z 19010KT 29/15 A2997 RMK A01 T02870154  RH  045%=      5-min Rain = 0
KGO1 201359Z 17010KT 29/16 A2997 RMK A01 T02880156  RH  045%=      5-min Rain = 0
KGO1 201400Z 19012KT 29/16 A2997 RMK A01 T02890156  RH  044%=      5-min Rain = 0
KGO1 201401Z 19010KT 29/16 A2997 RMK A01 T02900156  RH  044%=      5-min Rain = 0
KGO1 201402Z 18010KT 29/16 A2997 RMK A01 T02910157  RH  044%=      5-min Rain = 0
KGO1 201403Z 20012KT 29/16 A2997 RMK A01 T02930157  RH  044%=      5-min Rain = 0
KGO1 201404Z 20016KT 29/16 A2997 RMK A01 T02930156  RH  043%=      5-min Rain = 0
KGO1 201405Z 20011G16KT 29/15 A2997 RMK A01 T02910154  RH  043%=      5-min Rain = 0
KGO1 201406Z 18010KT 29/16 A2997 RMK A01 T02900155  RH  044%=      5-min Rain = 0
KGO1 201407Z 18013KT 29/16 A2997 RMK A01 T02910156  RH  044%=      5-min Rain = 0
KGO1 201408Z 18011KT 29/16 A2996 RMK A01 T02910156  RH  044%=      5-min Rain = 0
KGO1 201409Z 19012KT 29/16 A2997 RMK A01 T02930158  RH  044%=      5-min Rain = 0
KGO1 201410Z 20011KT 29/16 A2997 RMK A01 T02940156  RH  043%=      5-min Rain = 0
KGO1 201411Z 19012KT 29/16 A2997 RMK A01 T02910156  RH  044%=      5-min Rain = 0
KGO1 201412Z 19013KT 29/16 A2997 RMK A01 T02910156  RH  044%=      5-min Rain = 0
KGO1 201413Z 20013KT 29/16 A2996 RMK A01 T02920156  RH  044%=      5-min Rain = 0
KGO1 201414Z 20015KT 29/16 A2996 RMK A01 T02920156  RH  044%=      5-min Rain = 0
KGO1 201415Z 20015KT 29/16 A2996 RMK A01 T02920155  RH  044%=      5-min Rain = 0
KGO1 201416Z 20013KT 29/16 A2996 RMK A01 T02910156  RH  044%=      5-min Rain = 0
KGO1 201417Z 19012KT 29/16 A2996 RMK A01 T02910156  RH  044%=      5-min Rain = 0
KGO1 201418Z 19011KT 29/16 A2996 RMK A01 T02910156  RH  044%=      5-min Rain = 0
KGO1 201419Z 21012KT 29/16 A2996 RMK A01 T02930158  RH  044%=      5-min Rain = 0
KGO1 201420Z 18013KT 29/16 A2996 RMK A01 T02940159  RH  044%=      5-min Rain = 0
KGO1 201421Z 19012KT 30/16 A2996 RMK A01 T02960158  RH  043%=      5-min Rain = 0
KGO1 201422Z 19015KT 30/16 A2996 RMK A01 T02980158  RH  043%=      5-min Rain = 0
KGO1 201423Z 19015KT 30/16 A2996 RMK A01 T02970158  RH  043%=      5-min Rain = 0
KGO1 201424Z 19015KT 30/16 A2996 RMK A01 T02970158  RH  043%=      5-min Rain = 0
KGO1 201425Z 20014KT 30/16 A2996 RMK A01 T02960158  RH  043%=      5-min Rain = 0
KGO1 201426Z 19015KT 30/16 A2997 RMK A01 T02970159  RH  043%=      5-min Rain = 0
KGO1 201427Z 19015KT 30/16 A2996 RMK A01 T02960157  RH  043%=      5-min Rain = 0
KGO1 201428Z 20014KT 30/16 A2996 RMK A01 T02950158  RH  043%=      5-min Rain = 0
KGO1 201429Z 20013KT 30/16 A2996 RMK A01 T02950157  RH  043%=      5-min Rain = 0
KGO1 201430Z 20015KT 30/16 A2996 RMK A01 T02950158  RH  044%=      5-min Rain = 0
KGO1 201431Z 19014KT 30/16 A2996 RMK A01 T02950157  RH  043%=      5-min Rain = 0
KGO1 201432Z 19013KT 29/16 A2996 RMK A01 T02940158  RH  044%=      5-min Rain = 0
KGO1 201433Z 19013KT 30/16 A2997 RMK A01 T02950158  RH  044%=      5-min Rain = 0
KGO1 201434Z 19013KT 30/16 A2996 RMK A01 T02960159  RH  043%=      5-min Rain = 0
KGO1 201435Z 20015KT 30/16 A2996 RMK A01 T02970159  RH  043%=      5-min Rain = 0
KGO1 201436Z 19013KT 30/16 A2997 RMK A01 T02970158  RH  043%=      5-min Rain = 0
KGO1 201437Z 19015KT 30/16 A2997 RMK A01 T02970159  RH  043%=      5-min Rain = 0
KGO1 201438Z 19013KT 30/16 A2997 RMK A01 T02970159  RH  043%=      5-min Rain = 0
KGO1 201439Z 18013KT 30/16 A2996 RMK A01 T02970159  RH  043%=      5-min Rain = 0
KGO1 201440Z 19014KT 30/16 A2996 RMK A01 T02980158  RH  043%=      5-min Rain = 0
KGO1 201441Z 19013KT 30/16 A2997 RMK A01 T02980158  RH  043%=      5-min Rain = 0
KGO1 201442Z 20010KT 30/16 A2997 RMK A01 T02980158  RH  043%=      5-min Rain = 0
KGO1 201443Z 18013KT 30/16 A2996 RMK A01 T02980161  RH  043%=      5-min Rain = 0
KGO1 201444Z 19013G18KT 30/16 A2996 RMK A01 T03010160  RH  043%=      5-min Rain = 0
KGO1 201445Z 20016KT 30/16 A2996 RMK A01 T03030161  RH  042%=      5-min Rain = 0
KGO1 201446Z 19017KT 30/16 A2996 RMK A01 T03020159  RH  042%=      5-min Rain = 0
KGO1 201447Z 20018KT 30/16 A2996 RMK A01 T03010159  RH  042%=      5-min Rain = 0
KGO1 201448Z 20018KT 30/16 A2996 RMK A01 T03000159  RH  043%=      5-min Rain = 0
KGO1 201449Z 21017KT 30/16 A2996 RMK A01 T02980159  RH  043%=      5-min Rain = 0
KGO1 201450Z 20016KT 30/16 A2996 RMK A01 T02970159  RH  043%=      5-min Rain = 0
KGO1 201451Z 21014KT 30/16 A2996 RMK A01 T02970160  RH  043%=      5-min Rain = 0
KGO1 201452Z 21014KT 30/16 A2996 RMK A01 T02990160  RH  043%=      5-min Rain = 0
KGO1 201453Z 20015KT 30/16 A2996 RMK A01 T03000161  RH  043%=      5-min Rain = 0
KGO1 201454Z 20014KT 30/16 A2996 RMK A01 T03010161  RH  043%=      5-min Rain = 0
KGO1 201455Z 20016KT 30/16 A2996 RMK A01 T03020161  RH  042%=      5-min Rain = 0
KGO1 201456Z 19015KT 30/16 A2996 RMK A01 T03020160  RH  042%=      5-min Rain = 0
KGO1 201457Z 19014KT 30/16 A2996 RMK A01 T03020160  RH  042%=      5-min Rain = 0
KGO1 201458Z 20013KT 30/16 A2996 RMK A01 T03010161  RH  043%=      5-min Rain = 0
KGO1 201459Z 19016KT 30/16 A2996 RMK A01 T03030161  RH  042%=      5-min Rain = 0
KGO1 201500Z 20014KT 30/16 A2996 RMK A01 T03030161  RH  042%=      5-min Rain = 0
KGO1 201501Z 21017KT 30/16 A2996 RMK A01 T03030161  RH  042%=      5-min Rain = 0
KGO1 201502Z 21015KT 30/16 A2996 RMK A01 T03030161  RH  042%=      5-min Rain = 0
KGO1 201503Z 21014KT 30/16 A2996 RMK A01 T03020161  RH  043%=      5-min Rain = 0
KGO1 201504Z 20013KT 30/16 A2996 RMK A01 T03030163  RH  043%=      5-min Rain = 0
KGO1 201505Z 20015KT 31/16 A2995 RMK A01 T03060163  RH  042%=      5-min Rain = 0
KGO1 201506Z 20013KT 31/16 A2995 RMK A01 T03070163  RH  042%=      5-min Rain = 0
KGO1 201507Z 19016G22KT 31/16 A2995 RMK A01 T03080163  RH  042%=      5-min Rain = 0
KGO1 201508Z 20017KT 31/16 A2995 RMK A01 T03080162  RH  041%=      5-min Rain = 0
KGO1 201509Z 19016KT 31/16 A2995 RMK A01 T03080162  RH  041%=      5-min Rain = 0
KGO1 201510Z 20015KT 31/16 A2995 RMK A01 T03080163  RH  042%=      5-min Rain = 0
KGO1 201511Z 20015KT 31/16 A2995 RMK A01 T03080162  RH  041%=      5-min Rain = 0
KGO1 201512Z 20014KT 31/16 A2995 RMK A01 T03090163  RH  041%=      5-min Rain = 0
KGO1 201513Z 19015KT 31/16 A2995 RMK A01 T03080164  RH  042%=      5-min Rain = 0
KGO1 201514Z 19014KT 31/16 A2995 RMK A01 T03090163  RH  042%=      5-min Rain = 0
KGO1 201515Z 18013KT 31/16 A2995 RMK A01 T03090164  RH  042%=      5-min Rain = 0
KGO1 201516Z 18015KT 31/16 A2995 RMK A01 T03110164  RH  041%=      5-min Rain = 0
KGO1 201517Z 19014KT 31/16 A2995 RMK A01 T03110162  RH  041%=      5-min Rain = 0
KGO1 201518Z 18014KT 31/16 A2995 RMK A01 T03090163  RH  041%=      5-min Rain = 0
KGO1 201519Z 18016KT 31/16 A2995 RMK A01 T03090163  RH  041%=      5-min Rain = 0
KGO1 201520Z 19014KT 31/16 A2995 RMK A01 T03110163  RH  041%=      5-min Rain = 0
KGO1 201521Z 19013KT 31/16 A2995 RMK A01 T03120164  RH  041%=      5-min Rain = 0
KGO1 201522Z 18014KT 31/16 A2995 RMK A01 T03120163  RH  041%=      5-min Rain = 0
KGO1 201523Z 19015KT 31/16 A2995 RMK A01 T03130163  RH  041%=      5-min Rain = 0
KGO1 201524Z 20013KT 31/16 A2995 RMK A01 T03130164  RH  041%=      5-min Rain = 0
KGO1 201525Z 20013KT 31/16 A2995 RMK A01 T03130163  RH  041%=      5-min Rain = 0
KGO1 201526Z 20013KT 31/16 A2995 RMK A01 T03130163  RH  041%=      5-min Rain = 0
KGO1 201527Z 21014KT 31/16 A2995 RMK A01 T03140164  RH  041%=      5-min Rain = 0
KGO1 201528Z 20015KT 31/16 A2995 RMK A01 T03140164  RH  041%=      5-min Rain = 0
KGO1 201529Z 19012KT 31/16 A2995 RMK A01 T03110163  RH  041%=      5-min Rain = 0
KGO1 201530Z 20013G18KT 31/17 A2995 RMK A01 T03110165  RH  041%=      5-min Rain = 0
KGO1 201531Z 19015KT 32/17 A2995 RMK A01 T03150166  RH  041%=      5-min Rain = 0
KGO1 201532Z 20016KT 32/16 A2995 RMK A01 T03170164  RH  040%=      5-min Rain = 0
KGO1 201533Z 19014KT 32/16 A2995 RMK A01 T03160163  RH  040%=      5-min Rain = 0
KGO1 201534Z 19013KT 32/16 A2995 RMK A01 T03160164  RH  040%=      5-min Rain = 0
KGO1 201535Z 19016KT 32/17 A2995 RMK A01 T03200166  RH  040%=      5-min Rain = 0
KGO1 201536Z 20014KT 32/16 A2995 RMK A01 T03210164  RH  039%=      5-min Rain = 0
KGO1 201537Z 19013G18KT 32/16 A2995 RMK A01 T03190164  RH  039%=      5-min Rain = 0
KGO1 201538Z 20016KT 32/16 A2995 RMK A01 T03200164  RH  039%=      5-min Rain = 0
KGO1 201539Z 22017KT 32/16 A2995 RMK A01 T03210163  RH  039%=      5-min Rain = 0
KGO1 201540Z 22017KT 32/16 A2995 RMK A01 T03200163  RH  039%=      5-min Rain = 0
KGO1 201541Z 22016KT 32/16 A2995 RMK A01 T03180164  RH  040%=      5-min Rain = 0
KGO1 201542Z 22012KT 32/17 A2995 RMK A01 T03190166  RH  040%=      5-min Rain = 0
KGO1 201543Z 21014KT 32/17 A2995 RMK A01 T03230167  RH  039%=      5-min Rain = 0
KGO1 201544Z 21015KT 32/17 A2995 RMK A01 T03230166  RH  039%=      5-min Rain = 0
KGO1 201545Z 20016KT 32/17 A2995 RMK A01 T03230167  RH  039%=      5-min Rain = 0
KGO1 201546Z 20015KT 32/17 A2995 RMK A01 T03240166  RH  039%=      5-min Rain = 0
KGO1 201547Z 20016KT 32/17 A2995 RMK A01 T03240165  RH  039%=      5-min Rain = 0
KGO1 201548Z 21014KT 32/17 A2995 RMK A01 T03230166  RH  039%=      5-min Rain = 0
KGO1 201549Z 22015KT 32/17 A2995 RMK A01 T03230166  RH  039%=      5-min Rain = 0
KGO1 201550Z 20014KT 33/17 A2995 RMK A01 T03250166  RH  039%=      5-min Rain = 0
KGO1 201551Z 20010KT 33/17 A2995 RMK A01 T03250166  RH  039%=      5-min Rain = 0
KGO1 201552Z 20012KT 33/17 A2995 RMK A01 T03260167  RH  039%=      5-min Rain = 0
KGO1 201553Z 19011KT 33/17 A2995 RMK A01 T03270167  RH  038%=      5-min Rain = 0
KGO1 201554Z 18013KT 33/17 A2995 RMK A01 T03270167  RH  038%=      5-min Rain = 0
KGO1 201555Z 17017KT 33/17 A2995 RMK A01 T03290165  RH  038%=      5-min Rain = 0
KGO1 201556Z 18016KT 33/17 A2995 RMK A01 T03290166  RH  038%=      5-min Rain = 0
KGO1 201557Z 18016KT 33/17 A2995 RMK A01 T03270166  RH  038%=      5-min Rain = 0
KGO1 201558Z 17013KT 33/17 A2995 RMK A01 T03260165  RH  038%=      5-min Rain = 0
KGO1 201559Z 17014KT 33/17 A2995 RMK A01 T03260166  RH  038%=      5-min Rain = 0
KGO1 201600Z 18011G16KT 33/17 A2995 RMK A01 T03270166  RH  038%=      5-min Rain = 0
KGO1 201601Z 17010KT 33/17 A2995 RMK A01 T03280167  RH  038%=      5-min Rain = 0
KGO1 201602Z 18013KT 33/17 A2995 RMK A01 T03310169  RH  038%=      5-min Rain = 0
KGO1 201603Z 19014KT 33/17 A2995 RMK A01 T03340167  RH  037%=      5-min Rain = 0
KGO1 201604Z 19013KT 33/17 A2995 RMK A01 T03320166  RH  037%=      5-min Rain = 0
KGO1 201605Z 19012KT 33/17 A2995 RMK A01 T03320167  RH  037%=      5-min Rain = 0
KGO1 201606Z 20014KT 33/17 A2995 RMK A01 T03310167  RH  038%=      5-min Rain = 0
KGO1 201607Z 21013KT 33/17 A2995 RMK A01 T03330166  RH  037%=      5-min Rain = 0
KGO1 201608Z 20013G18KT 33/17 A2995 RMK A01 T03320166  RH  037%=      5-min Rain = 0
KGO1 201609Z 19017KT 33/17 A2995 RMK A01 T03320166  RH  037%=      5-min Rain = 0
KGO1 201610Z 20015KT 33/17 A2995 RMK A01 T03330166  RH  037%=      5-min Rain = 0
KGO1 201611Z 20013KT 33/17 A2995 RMK A01 T03330166  RH  037%=      5-min Rain = 0
KGO1 201612Z 20015KT 33/17 A2995 RMK A01 T03320166  RH  037%=      5-min Rain = 0
KGO1 201613Z 21016KT 33/16 A2995 RMK A01 T03300164  RH  037%=      5-min Rain = 0
KGO1 201614Z 21016KT 33/17 A2995 RMK A01 T03280165  RH  038%=      5-min Rain = 0
KGO1 201615Z 22014KT 33/17 A2995 RMK A01 T03280166  RH  038%=      5-min Rain = 0
KGO1 201616Z 21016KT 33/17 A2995 RMK A01 T03300167  RH  038%=      5-min Rain = 0
KGO1 201617Z 20015KT 33/17 A2995 RMK A01 T03310166  RH  037%=      5-min Rain = 0
KGO1 201618Z 21015KT 33/17 A2995 RMK A01 T03330165  RH  037%=      5-min Rain = 0
KGO1 201619Z 21015KT 33/17 A2995 RMK A01 T03340165  RH  037%=      5-min Rain = 0
KGO1 201620Z 20014KT 33/17 A2995 RMK A01 T03330167  RH  037%=      5-min Rain = 0
KGO1 201621Z 18017KT 33/17 A2995 RMK A01 T03340166  RH  037%=      5-min Rain = 0
KGO1 201622Z 18016KT 33/17 A2995 RMK A01 T03340165  RH  036%=      5-min Rain = 0
KGO1 201623Z 19014KT 34/17 A2995 RMK A01 T03350166  RH  036%=      5-min Rain = 0
KGO1 201624Z 19015KT 34/17 A2994 RMK A01 T03370166  RH  036%=      5-min Rain = 0
KGO1 201625Z 19014KT 34/17 A2994 RMK A01 T03370166  RH  036%=      5-min Rain = 0
KGO1 201626Z 19011KT 34/17 A2994 RMK A01 T03380168  RH  036%=      5-min Rain = 0
KGO1 201627Z 17012G17KT 34/17 A2994 RMK A01 T03390169  RH  036%=      5-min Rain = 0
KGO1 201628Z 18014KT 34/17 A2994 RMK A01 T03400168  RH  036%=      5-min Rain = 0
KGO1 201629Z 21013KT 34/17 A2994 RMK A01 T03390169  RH  036%=      5-min Rain = 0
KGO1 201630Z 20011KT 34/17 A2995 RMK A01 T03380167  RH  036%=      5-min Rain = 0
KGO1 201631Z 21014KT 34/17 A2994 RMK A01 T03350167  RH  037%=      5-min Rain = 0
KGO1 201632Z 19012KT 34/17 A2995 RMK A01 T03360168  RH  037%=      5-min Rain = 0
KGO1 201633Z 19011KT 34/17 A2995 RMK A01 T03380167  RH  036%=      5-min Rain = 0
KGO1 201634Z 21012KT 34/17 A2994 RMK A01 T03400169  RH  036%=      5-min Rain = 0
KGO1 201635Z 20013KT 34/17 A2994 RMK A01 T03410166  RH  035%=      5-min Rain = 0
KGO1 201636Z 20014KT 34/17 A2994 RMK A01 T03430167  RH  035%=      5-min Rain = 0
KGO1 201637Z 19013G18KT 34/17 A2995 RMK A01 T03430169  RH  036%=      5-min Rain = 0
KGO1 201638Z 18014KT 34/17 A2995 RMK A01 T03440166  RH  035%=      5-min Rain = 0
KGO1 201639Z 18012KT 34/17 A2994 RMK A01 T03390166  RH  036%=      5-min Rain = 0
KGO1 201640Z 18015KT 34/17 A2994 RMK A01 T03380166  RH  036%=      5-min Rain = 0
KGO1 201641Z 19014G19KT 34/17 A2994 RMK A01 T03400166  RH  036%=      5-min Rain = 0
KGO1 201642Z 20011KT 34/17 A2994 RMK A01 T03400167  RH  036%=      5-min Rain = 0
KGO1 201643Z 19012KT 34/17 A2994 RMK A01 T03400168  RH  036%=      5-min Rain = 0
KGO1 201644Z 19013KT 34/17 A2994 RMK A01 T03430166  RH  035%=      5-min Rain = 0
KGO1 201645Z 18014KT 35/16 A2994 RMK A01 T03450163  RH  034%=      5-min Rain = 0
KGO1 201646Z 19015KT 34/16 A2994 RMK A01 T03440164  RH  034%=      5-min Rain = 0
KGO1 201647Z 19013KT 34/16 A2994 RMK A01 T03420161  RH  034%=      5-min Rain = 0
KGO1 201648Z 19014KT 34/16 A2994 RMK A01 T03400164  RH  035%=      5-min Rain = 0
KGO1 201649Z 20014KT 34/17 A2994 RMK A01 T03420167  RH  035%=      5-min Rain = 0
KGO1 201650Z 20012KT 34/17 A2994 RMK A01 T03430166  RH  035%=      5-min Rain = 0
KGO1 201651Z 21010KT 34/17 A2994 RMK A01 T03420167  RH  035%=      5-min Rain = 0
KGO1 201652Z 19012KT 34/17 A2994 RMK A01 T03430168  RH  035%=      5-min Rain = 0
KGO1 201653Z 21015KT 35/17 A2994 RMK A01 T03470166  RH  034%=      5-min Rain = 0
KGO1 201654Z 21014KT 35/16 A2994 RMK A01 T03480164  RH  034%=      5-min Rain = 0
KGO1 201655Z 20011KT 35/17 A2994 RMK A01 T03470166  RH  034%=      5-min Rain = 0
KGO1 201656Z 20014KT 35/17 A2994 RMK A01 T03510168  RH  034%=      5-min Rain = 0
KGO1 201657Z 21013KT 35/17 A2994 RMK A01 T03500168  RH  034%=      5-min Rain = 0
KGO1 201658Z 20014KT 35/17 A2994 RMK A01 T03470169  RH  035%=      5-min Rain = 0
KGO1 201659Z 20013G18KT 35/17 A2994 RMK A01 T03460168  RH  035%=      5-min Rain = 0
KGO1 201700Z 20015KT 35/17 A2994 RMK A01 T03460168  RH  035%=      5-min Rain = 0
KGO1 201701Z 20013KT 35/17 A2994 RMK A01 T03470168  RH  035%=      5-min Rain = 0
KGO1 201702Z 19011KT 35/17 A2994 RMK A01 T03470168  RH  035%=      5-min Rain = 0
KGO1 201703Z 20012KT 35/17 A2994 RMK A01 T03470168  RH  034%=      5-min Rain = 0
KGO1 201704Z 17011KT 35/17 A2994 RMK A01 T03480170  RH  035%=      5-min Rain = 0
KGO1 201705Z 17012KT 35/17 A2994 RMK A01 T03510168  RH  034%=      5-min Rain = 0
KGO1 201706Z 16012KT 35/17 A2994 RMK A01 T03520167  RH  033%=      5-min Rain = 0
KGO1 201707Z 17013KT 35/17 A2994 RMK A01 T03510167  RH  034%=      5-min Rain = 0
KGO1 201708Z 18011KT 35/17 A2994 RMK A01 T03520166  RH  033%=      5-min Rain = 0
KGO1 201709Z 19014KT 35/17 A2994 RMK A01 T03510169  RH  034%=      5-min Rain = 0
KGO1 201710Z 18012KT 35/17 A2994 RMK A01 T03500168  RH  034%=      5-min Rain = 0
KGO1 201711Z 17013KT 35/17 A2994 RMK A01 T03490168  RH  034%=      5-min Rain = 0
KGO1 201712Z 20014KT 35/17 A2994 RMK A01 T03480167  RH  034%=      5-min Rain = 0
KGO1 201713Z 20012KT 35/17 A2994 RMK A01 T03480165  RH  034%=      5-min Rain = 0
KGO1 201714Z 19016KT 35/17 A2994 RMK A01 T03520167  RH  033%=      5-min Rain = 0
KGO1 201715Z 18015KT 36/17 A2994 RMK A01 T03560166  RH  033%=      5-min Rain = 0
KGO1 201716Z 19014KT 36/16 A2994 RMK A01 T03570163  RH  032%=      5-min Rain = 0
KGO1 201717Z 18015KT 35/17 A2994 RMK A01 T03540166  RH  033%=      5-min Rain = 0
KGO1 201718Z 17013KT 35/17 A2994 RMK A01 T03520166  RH  033%=      5-min Rain = 0
KGO1 201719Z 18015KT 35/17 A2994 RMK A01 T03510165  RH  033%=      5-min Rain = 0
KGO1 201720Z 18013KT 35/16 A2994 RMK A01 T03510164  RH  033%=      5-min Rain = 0
KGO1 201721Z 17011KT 35/17 A2994 RMK A01 T03530166  RH  033%=      5-min Rain = 0
KGO1 201722Z 17015KT 36/17 A2994 RMK A01 T03550167  RH  033%=      5-min Rain = 0
KGO1 201723Z 17014KT 36/17 A2994 RMK A01 T03560166  RH  032%=      5-min Rain = 0
KGO1 201724Z 18013KT 36/17 A2994 RMK A01 T03560167  RH  033%=      5-min Rain = 0
KGO1 201725Z 19012KT 36/17 A2994 RMK A01 T03560166  RH  032%=      5-min Rain = 0
KGO1 201726Z 19013KT 36/17 A2994 RMK A01 T03550166  RH  033%=      5-min Rain = 0
KGO1 201727Z 18017KT 36/17 A2994 RMK A01 T03570167  RH  033%=      5-min Rain = 0
KGO1 201728Z 16013KT 36/17 A2994 RMK A01 T03600169  RH  032%=      5-min Rain = 0
KGO1 201729Z 16011KT 36/17 A2994 RMK A01 T03630170  RH  032%=      5-min Rain = 0
KGO1 201730Z 16013KT 36/17 A2994 RMK A01 T03620167  RH  032%=      5-min Rain = 0
KGO1 201731Z 15014KT 36/17 A2994 RMK A01 T03600167  RH  032%=      5-min Rain = 0
KGO1 201732Z 15014KT 36/17 A2994 RMK A01 T03590167  RH  032%=      5-min Rain = 0
KGO1 201733Z 15015KT 36/17 A2993 RMK A01 T03590166  RH  032%=      5-min Rain = 0
KGO1 201734Z 15016G22KT 36/17 A2993 RMK A01 T03620169  RH  032%=      5-min Rain = 0
KGO1 201735Z 15018KT 36/17 A2993 RMK A01 T03640167  RH  031%=      5-min Rain = 0
KGO1 201736Z 15018KT 36/16 A2993 RMK A01 T03610164  RH  031%=      5-min Rain = 0
KGO1 201737Z 15015KT 36/16 A2993 RMK A01 T03580163  RH  031%=      5-min Rain = 0
KGO1 201738Z 15014G19KT 36/17 A2993 RMK A01 T03590165  RH  032%=      5-min Rain = 0
KGO1 201739Z 16017KT 36/17 A2993 RMK A01 T03640166  RH  031%=      5-min Rain = 0
KGO1 201740Z 16019KT 37/16 A2993 RMK A01 T03660164  RH  030%=      5-min Rain = 0
KGO1 201741Z 17019KT 37/16 A2993 RMK A01 T03650159  RH  030%=      5-min Rain = 0
KGO1 201742Z 17017KT 36/16 A2993 RMK A01 T03630161  RH  030%=      5-min Rain = 0
KGO1 201743Z 17017KT 36/16 A2993 RMK A01 T03630163  RH  031%=      5-min Rain = 0
KGO1 201744Z 16015KT 36/16 A2993 RMK A01 T03630162  RH  031%=      5-min Rain = 0
KGO1 201745Z 17015KT 36/16 A2993 RMK A01 T03620163  RH  031%=      5-min Rain = 0
KGO1 201746Z 18017KT 36/16 A2993 RMK A01 T03590164  RH  031%=      5-min Rain = 0
KGO1 201747Z 18015KT 36/16 A2993 RMK A01 T03590164  RH  032%=      5-min Rain = 0
KGO1 201748Z 19015KT 36/17 A2993 RMK A01 T03580165  RH  032%=      5-min Rain = 0
KGO1 201749Z 19013KT 36/17 A2993 RMK A01 T03580166  RH  032%=      5-min Rain = 0
KGO1 201750Z 18015KT 36/17 A2993 RMK A01 T03620168  RH  032%=      5-min Rain = 0
KGO1 201751Z 17013KT 36/17 A2993 RMK A01 T03640166  RH  031%=      5-min Rain = 0
KGO1 201752Z 16015KT 37/17 A2993 RMK A01 T03650166  RH  031%=      5-min Rain = 0
KGO1 201753Z 17013KT 36/17 A2993 RMK A01 T03640165  RH  031%=      5-min Rain = 0
KGO1 201754Z 18011KT 36/17 A2993 RMK A01 T03630167  RH  031%=      5-min Rain = 0
KGO1 201755Z 19016KT 37/16 A2993 RMK A01 T03670164  RH  030%=      5-min Rain = 0
KGO1 201756Z 20014KT 37/16 A2993 RMK A01 T03680164  RH  030%=      5-min Rain = 0
KGO1 201757Z 19012G17KT 37/17 A2993 RMK A01 T03680165  RH  030%=      5-min Rain = 0
KGO1 201758Z 19015G20KT 37/16 A2993 RMK A01 T03710163  RH  029%=      5-min Rain = 0
KGO1 201759Z 19013KT 37/16 A2993 RMK A01 T03700164  RH  030%=      5-min Rain = 0
KGO1 201800Z 18015KT 37/17 A2993 RMK A01 T03720168  RH  030%=      5-min Rain = 0
KGO1 201801Z 18018KT 37/17 A2993 RMK A01 T03740168  RH  030%=      5-min Rain = 0
KGO1 201802Z 18017KT 37/17 A2993 RMK A01 T03700166  RH  030%=      5-min Rain = 0
KGO1 201803Z 17015KT 37/16 A2993 RMK A01 T03660164  RH  030%=      5-min Rain = 0
KGO1 201804Z 17008KT 36/16 A2993 RMK A01 T03630164  RH  031%=      5-min Rain = 0
KGO1 201805Z 16010KT 36/17 A2992 RMK A01 T03640166  RH  031%=      5-min Rain = 0
KGO1 201806Z 16011KT 37/17 A2992 RMK A01 T03670168  RH  031%=      5-min Rain = 0
KGO1 201807Z 17010KT 37/17 A2992 RMK A01 T03700168  RH  030%=      5-min Rain = 0
KGO1 201808Z 17013G21KT 37/17 A2992 RMK A01 T03680168  RH  031%=      5-min Rain = 0
KGO1 201809Z 17017KT 37/17 A2992 RMK A01 T03690170  RH  031%=      5-min Rain = 0
KGO1 201810Z 17016KT 37/17 A2992 RMK A01 T03690170  RH  031%=      5-min Rain = 0
KGO1 201811Z 17015KT 37/17 A2992 RMK A01 T03690169  RH  031%=      5-min Rain = 0
KGO1 201812Z 17013KT 37/17 A2992 RMK A01 T03700171  RH  031%=      5-min Rain = 0
KGO1 201813Z 17014KT 37/17 A2992 RMK A01 T03700168  RH  030%=      5-min Rain = 0
KGO1 201814Z 16015KT 37/17 A2992 RMK A01 T03710168  RH  030%=      5-min Rain = 0
KGO1 201815Z 16014KT 37/17 A2992 RMK A01 T03730168  RH  030%=      5-min Rain = 0
KGO1 201816Z 18014KT 38/17 A2992 RMK A01 T03750167  RH  029%=      5-min Rain = 0
KGO1 201817Z 17014KT 38/17 A2992 RMK A01 T03760166  RH  029%=      5-min Rain = 0
KGO1 201818Z 17015KT 38/16 A2992 RMK A01 T03780164  RH  029%=      5-min Rain = 0
KGO1 201819Z 18017KT 38/16 A2992 RMK A01 T03790164  RH  028%=      5-min Rain = 0
KGO1 201820Z 18017G22KT 38/16 A2992 RMK A01 T03780164  RH  028%=      5-min Rain = 0
KGO1 201821Z 18017KT 38/16 A2992 RMK A01 T03780162  RH  028%=      5-min Rain = 0
KGO1 201822Z 19017KT 38/16 A2992 RMK A01 T03760164  RH  029%=      5-min Rain = 0
KGO1 201823Z 19015KT 38/16 A2992 RMK A01 T03760163  RH  029%=      5-min Rain = 0
KGO1 201824Z 19017KT 38/17 A2992 RMK A01 T03760165  RH  029%=      5-min Rain = 0
KGO1 201825Z 19018KT 38/17 A2992 RMK A01 T03770166  RH  029%=      5-min Rain = 0
KGO1 201826Z 19017KT 38/17 A2992 RMK A01 T03790167  RH  029%=      5-min Rain = 0
KGO1 201827Z 18015KT 38/17 A2992 RMK A01 T03790167  RH  029%=      5-min Rain = 0
KGO1 201828Z 19013KT 38/17 A2992 RMK A01 T03790168  RH  029%=      5-min Rain = 0
KGO1 201829Z 17014KT 38/17 A2992 RMK A01 T03810167  RH  029%=      5-min Rain = 0
KGO1 201830Z 17014KT 38/17 A2992 RMK A01 T03810171  RH  029%=      5-min Rain = 0
KGO1 201831Z 17014KT 38/17 A2992 RMK A01 T03820169  RH  029%=      5-min Rain = 0
KGO1 201832Z 17016KT 38/16 A2992 RMK A01 T03800164  RH  028%=      5-min Rain = 0
KGO1 201833Z 19012KT 38/16 A2992 RMK A01 T03790163  RH  028%=      5-min Rain = 0
KGO1 201834Z 17012KT 38/17 A2992 RMK A01 T03800165  RH  028%=      5-min Rain = 0
KGO1 201835Z 18016KT 38/17 A2992 RMK A01 T03840167  RH  028%=      5-min Rain = 0
KGO1 201836Z 17014KT 38/17 A2992 RMK A01 T03840166  RH  028%=      5-min Rain = 0
KGO1 201837Z 17011KT 39/17 A2992 RMK A01 T03850167  RH  028%=      5-min Rain = 0
KGO1 201838Z 18012G19KT 39/17 A2992 RMK A01 T03860168  RH  028%=      5-min Rain = 0
KGO1 201839Z 17014G20KT 39/17 A2992 RMK A01 T03890170  RH  028%=      5-min Rain = 0
KGO1 201840Z 17016KT 39/17 A2992 RMK A01 T03910170  RH  028%=      5-min Rain = 0
KGO1 201841Z 16019KT 39/17 A2992 RMK A01 T03910168  RH  027%=      5-min Rain = 0
KGO1 201842Z 17017KT 39/17 A2992 RMK A01 T03860166  RH  027%=      5-min Rain = 0
KGO1 201843Z 17014KT 38/17 A2992 RMK A01 T03830166  RH  028%=      5-min Rain = 0
KGO1 201844Z 18012KT 38/17 A2992 RMK A01 T03800165  RH  028%=      5-min Rain = 0
KGO1 201845Z 20015KT 38/17 A2992 RMK A01 T03780166  RH  029%=      5-min Rain = 0
KGO1 201846Z 18013KT 38/17 A2992 RMK A01 T03790166  RH  029%=      5-min Rain = 0
KGO1 201847Z 16017G23KT 38/17 A2992 RMK A01 T03820168  RH  029%=      5-min Rain = 0
KGO1 201848Z 16014KT 38/17 A2992 RMK A01 T03820168  RH  029%=      5-min Rain = 0
KGO1 201849Z 16017KT 38/17 A2991 RMK A01 T03840170  RH  029%=      5-min Rain = 0
KGO1 201850Z 16021G26KT 39/17 A2991 RMK A01 T03850168  RH  028%=      5-min Rain = 0
KGO1 201851Z 15018KT 38/17 A2991 RMK A01 T03830167  RH  028%=      5-min Rain = 0
KGO1 201852Z 16014G20KT 38/17 A2991 RMK A01 T03800167  RH  029%=      5-min Rain = 0
KGO1 201853Z 16020KT 38/17 A2991 RMK A01 T03800167  RH  029%=      5-min Rain = 0
KGO1 201854Z 16018KT 38/17 A2991 RMK A01 T03770166  RH  029%=      5-min Rain = 0
KGO1 201855Z 16017KT 38/17 A2991 RMK A01 T03770167  RH  029%=      5-min Rain = 0
KGO1 201856Z 16019KT 38/17 A2991 RMK A01 T03800166  RH  029%=      5-min Rain = 0
KGO1 201857Z 16017KT 38/17 A2991 RMK A01 T03820165  RH  028%=      5-min Rain = 0
KGO1 201858Z 15016KT 38/17 A2991 RMK A01 T03820166  RH  028%=      5-min Rain = 0
KGO1 201859Z 16017KT 38/17 A2991 RMK A01 T03830168  RH  028%=      5-min Rain = 0
KGO1 201900Z 16015KT 38/17 A2991 RMK A01 T03830168  RH  028%=      5-min Rain = 0
KGO1 201901Z 17013KT 38/17 A2991 RMK A01 T03820168  RH  029%=      5-min Rain = 0
KGO1 201902Z 17016KT 38/17 A2991 RMK A01 T03820169  RH  029%=      5-min Rain = 0
KGO1 201903Z 16015KT 38/17 A2991 RMK A01 T03820170  RH  029%=      5-min Rain = 0
KGO1 201904Z 16018KT 38/17 A2991 RMK A01 T03830171  RH  029%=      5-min Rain = 0
KGO1 201905Z 16014KT 38/17 A2991 RMK A01 T03810170  RH  029%=      5-min Rain = 0
KGO1 201906Z 15015KT 38/17 A2991 RMK A01 T03810170  RH  029%=      5-min Rain = 0
KGO1 201907Z 14016KT 38/17 A2991 RMK A01 T03840169  RH  028%=      5-min Rain = 0
KGO1 201908Z 14018G23KT 39/17 A2991 RMK A01 T03850168  RH  028%=      5-min Rain = 0
KGO1 201909Z 16017KT 39/17 A2991 RMK A01 T03850171  RH  028%=      5-min Rain = 0
KGO1 201910Z 17016G21KT 39/17 A2991 RMK A01 T03860173  RH  029%=      5-min Rain = 0
KGO1 201911Z 16014G19KT 39/17 A2991 RMK A01 T03900173  RH  028%=      5-min Rain = 0
KGO1 201912Z 15011KT 39/17 A2991 RMK A01 T03910173  RH  028%=      5-min Rain = 0
KGO1 201913Z 15012KT 39/17 A2991 RMK A01 T03910172  RH  028%=      5-min Rain = 0
KGO1 201914Z 16013KT 39/17 A2991 RMK A01 T03860171  RH  028%=      5-min Rain = 0
KGO1 201915Z 15013KT 39/18 A2991 RMK A01 T03870175  RH  029%=      5-min Rain = 0
KGO1 201916Z 14019G24KT 39/17 A299 RMK A01 T03910171  RH  028%=      5-min Rain = 0
KGO1 201917Z 14021G26KT 39/17 A299 RMK A01 T03900172  RH  028%=      5-min Rain = 0
KGO1 201918Z 14019KT 39/17 A299 RMK A01 T03870173  RH  029%=      5-min Rain = 0
KGO1 201919Z 13017KT 39/17 A2991 RMK A01 T03850174  RH  029%=      5-min Rain = 0
KGO1 201920Z 14014KT 39/18 A2991 RMK A01 T03850176  RH  029%=      5-min Rain = 0
KGO1 201921Z 15014KT 39/18 A2991 RMK A01 T03870175  RH  029%=      5-min Rain = 0
KGO1 201922Z 13015KT 39/17 A299 RMK A01 T03870173  RH  029%=      5-min Rain = 0
KGO1 201923Z 14019G28KT 39/18 A299 RMK A01 T03850175  RH  029%=      5-min Rain = 0
KGO1 201924Z 18017G22KT 39/18 A299 RMK A01 T03880175  RH  029%=      5-min Rain = 0
KGO1 201925Z 15019G26KT 39/18 A299 RMK A01 T03890176  RH  029%=      5-min Rain = 0
KGO1 201926Z 15018KT 39/17 A299 RMK A01 T03910174  RH  028%=      5-min Rain = 0
KGO1 201927Z 15018KT 39/17 A299 RMK A01 T03910173  RH  028%=      5-min Rain = 0
KGO1 201928Z 15015G21KT 39/17 A299 RMK A01 T03880173  RH  028%=      5-min Rain = 0
KGO1 201929Z 14017KT 39/17 A299 RMK A01 T03880172  RH  028%=      5-min Rain = 0
KGO1 201930Z 15016G23KT 39/17 A299 RMK A01 T03870172  RH  028%=      5-min Rain = 0
KGO1 201931Z 14021G26KT 39/17 A299 RMK A01 T03880170  RH  028%=      5-min Rain = 0
KGO1 201932Z 14018KT 39/17 A299 RMK A01 T03880166  RH  027%=      5-min Rain = 0
KGO1 201933Z 17019KT 39/17 A299 RMK A01 T03850167  RH  028%=      5-min Rain = 0
KGO1 201934Z 16020KT 39/17 A299 RMK A01 T03850168  RH  028%=      5-min Rain = 0
KGO1 201935Z 17016KT 39/17 A299 RMK A01 T03870169  RH  028%=      5-min Rain = 0
KGO1 201936Z 15016KT 39/17 A299 RMK A01 T03870170  RH  028%=      5-min Rain = 0
KGO1 201937Z 15014KT 39/17 A299 RMK A01 T03890172  RH  028%=      5-min Rain = 0
KGO1 201938Z 15017KT 39/17 A299 RMK A01 T03910173  RH  028%=      5-min Rain = 0
KGO1 201939Z 16021G26KT 39/17 A299 RMK A01 T03930166  RH  027%=      5-min Rain = 0
KGO1 201940Z 15020KT 39/16 A299 RMK A01 T03900163  RH  026%=      5-min Rain = 0
KGO1 201941Z 16019KT 39/16 A299 RMK A01 T03890164  RH  027%=      5-min Rain = 0
KGO1 201942Z 17018KT 39/16 A299 RMK A01 T03860163  RH  027%=      5-min Rain = 0
KGO1 201943Z 16016KT 39/16 A299 RMK A01 T03870163  RH  027%=      5-min Rain = 0
KGO1 201944Z 16014KT 39/17 A299 RMK A01 T03890166  RH  027%=      5-min Rain = 0
KGO1 201945Z 16015G20KT 39/17 A299 RMK A01 T03900166  RH  027%=      5-min Rain = 0
KGO1 201946Z 15019KT 39/17 A299 RMK A01 T03910168  RH  027%=      5-min Rain = 0
KGO1 201947Z 16019KT 39/17 A299 RMK A01 T03900167  RH  027%=      5-min Rain = 0
KGO1 201948Z 16014KT 39/17 A299 RMK A01 T03860167  RH  028%=      5-min Rain = 0
KGO1 201949Z 16017KT 39/17 A2989 RMK A01 T03870167  RH  028%=      5-min Rain = 0
KGO1 201950Z 15016KT 39/17 A2989 RMK A01 T03880168  RH  028%=      5-min Rain = 0
KGO1 201951Z 15017KT 39/17 A2989 RMK A01 T03860168  RH  028%=      5-min Rain = 0
KGO1 201952Z 15020KT 39/17 A2989 RMK A01 T03880170  RH  028%=      5-min Rain = 0
KGO1 201953Z 16019KT 39/17 A2989 RMK A01 T03910166  RH  027%=      5-min Rain = 0
KGO1 201954Z 15018KT 39/17 A2989 RMK A01 T03920168  RH  027%=      5-min Rain = 0
KGO1 201955Z 16015G21KT 39/17 A2989 RMK A01 T03920168  RH  027%=      5-min Rain = 0
KGO1 201956Z 14017G22KT 39/17 A2989 RMK A01 T03940171  RH  027%=      5-min Rain = 0
KGO1 201957Z 15016KT 39/17 A2989 RMK A01 T03910171  RH  028%=      5-min Rain = 0
KGO1 201958Z 15021G26KT 39/17 A2989 RMK A01 T03890168  RH  028%=      5-min Rain = 0
KGO1 201959Z 15021KT 39/16 A2989 RMK A01 T03890163  RH  027%=      5-min Rain = 0
KGO1 202000Z 14016KT 39/16 A2989 RMK A01 T03900164  RH  027%=      5-min Rain = 0
KGO1 202001Z 15019G24KT 39/17 A2989 RMK A01 T03910166  RH  027%=      5-min Rain = 0
KGO1 202002Z 15018KT 39/17 A2989 RMK A01 T03930170  RH  027%=      5-min Rain = 0
KGO1 202003Z 16014KT 40/17 A2989 RMK A01 T03970172  RH  027%=      5-min Rain = 0
KGO1 202004Z 16018KT 40/17 A2989 RMK A01 T04010172  RH  026%=      5-min Rain = 0
KGO1 202005Z 17019KT 40/17 A2989 RMK A01 T04010170  RH  026%=      5-min Rain = 0
KGO1 202006Z 18017KT 40/17 A2989 RMK A01 T03960167  RH  026%=      5-min Rain = 0
KGO1 202007Z 17014KT 39/17 A2989 RMK A01 T03920170  RH  027%=      5-min Rain = 0
KGO1 202008Z 15016KT 40/17 A2989 RMK A01 T03950170  RH  027%=      5-min Rain = 0
KGO1 202009Z 16013KT 40/17 A2989 RMK A01 T03950168  RH  027%=      5-min Rain = 0
KGO1 202010Z 16016G22KT 39/17 A2989 RMK A01 T03910169  RH  027%=      5-min Rain = 0
KGO1 202011Z 16016G21KT 39/17 A2989 RMK A01 T03880168  RH  028%=      5-min Rain = 0
KGO1 202012Z 16018KT 39/17 A2989 RMK A01 T03870168  RH  028%=      5-min Rain = 0
KGO1 202013Z 16016KT 39/17 A2989 RMK A01 T03890169  RH  028%=      5-min Rain = 0
KGO1 202014Z 15019KT 39/17 A2989 RMK A01 T03920171  RH  028%=      5-min Rain = 0
KGO1 202015Z 14016KT 39/17 A2989 RMK A01 T03920169  RH  027%=      5-min Rain = 0
KGO1 202016Z 15016KT 39/17 A2989 RMK A01 T03900169  RH  028%=      5-min Rain = 0
KGO1 202017Z 16020G25KT 39/17 A2988 RMK A01 T03910167  RH  027%=      5-min Rain = 0
KGO1 202018Z 15020KT 39/17 A2988 RMK A01 T03900166  RH  027%=      5-min Rain = 0
KGO1 202019Z 15018KT 39/17 A2988 RMK A01 T03910168  RH  027%=      5-min Rain = 0
KGO1 202020Z 16021KT 39/17 A2988 RMK A01 T03920168  RH  027%=      5-min Rain = 0
KGO1 202021Z 16017G23KT 39/17 A2988 RMK A01 T03910167  RH  027%=      5-min Rain = 0
KGO1 202022Z 15018KT 39/17 A2988 RMK A01 T03900169  RH  028%=      5-min Rain = 0
KGO1 202023Z 15016KT 39/17 A2988 RMK A01 T03920170  RH  027%=      5-min Rain = 0
KGO1 202024Z 15017KT 39/17 A2988 RMK A01 T03940171  RH  027%=      5-min Rain = 0
KGO1 202025Z 15022G27KT 40/17 A2988 RMK A01 T03960168  RH  026%=      5-min Rain = 0
KGO1 202026Z 16019KT 39/17 A2988 RMK A01 T03940166  RH  026%=      5-min Rain = 0
KGO1 202027Z 17020KT 40/16 A2988 RMK A01 T03950163  RH  026%=      5-min Rain = 0
KGO1 202028Z 17015G20KT 39/16 A2988 RMK A01 T03920162  RH  026%=      5-min Rain = 0
KGO1 202029Z 16014G20KT 39/17 A2988 RMK A01 T03910165  RH  027%=      5-min Rain = 0
KGO1 202030Z 16021KT 39/16 A2988 RMK A01 T03900164  RH  027%=      5-min Rain = 0
KGO1 202031Z 15018KT 38/16 A2988 RMK A01 T03820161  RH  027%=      5-min Rain = 0
KGO1 202032Z 15019G25KT 38/16 A2988 RMK A01 T03810162  RH  028%=      5-min Rain = 0
KGO1 202033Z 16020KT 39/16 A2988 RMK A01 T03850163  RH  027%=      5-min Rain = 0
KGO1 202034Z 16015G20KT 39/16 A2988 RMK A01 T03890163  RH  027%=      5-min Rain = 0
KGO1 202035Z 15016G22KT 39/16 A2988 RMK A01 T03910163  RH  026%=      5-min Rain = 0
KGO1 202036Z 16017KT 39/16 A2988 RMK A01 T03920163  RH  026%=      5-min Rain = 0
KGO1 202037Z 16019KT 39/17 A2988 RMK A01 T03940165  RH  026%=      5-min Rain = 0
KGO1 202038Z 15018G23KT 40/17 A2988 RMK A01 T03950165  RH  026%=      5-min Rain = 0
KGO1 202039Z 16017G22KT 40/16 A2988 RMK A01 T03950163  RH  026%=      5-min Rain = 0
KGO1 202040Z 15014KT 39/16 A2988 RMK A01 T03920164  RH  026%=      5-min Rain = 0
KGO1 202041Z 17020G26KT 39/17 A2988 RMK A01 T03940165  RH  026%=      5-min Rain = 0
KGO1 202042Z 15018KT 39/17 A2988 RMK A01 T03930166  RH  026%=      5-min Rain = 0
KGO1 202043Z 14017KT 39/17 A2988 RMK A01 T03920167  RH  027%=      5-min Rain = 0
KGO1 202044Z 15016G22KT 39/17 A2988 RMK A01 T03930166  RH  027%=      5-min Rain = 0
KGO1 202045Z 15022KT 39/17 A2988 RMK A01 T03940166  RH  026%=      5-min Rain = 0
KGO1 202046Z 15020KT 39/17 A2988 RMK A01 T03940166  RH  026%=      5-min Rain = 0
KGO1 202047Z 17021KT 40/17 A2988 RMK A01 T03960167  RH  026%=      5-min Rain = 0
KGO1 202048Z 16019G24KT 40/17 A2988 RMK A01 T03950165  RH  026%=      5-min Rain = 0
KGO1 202049Z 16017KT 39/16 A2988 RMK A01 T03920164  RH  026%=      5-min Rain = 0
KGO1 202050Z 15014G21KT 39/17 A2988 RMK A01 T03900165  RH  027%=      5-min Rain = 0
KGO1 202051Z 15022KT 39/17 A2988 RMK A01 T03940166  RH  026%=      5-min Rain = 0
KGO1 202052Z 16018G23KT 40/16 A2988 RMK A01 T03960164  RH  026%=      5-min Rain = 0
KGO1 202053Z 15017G22KT 39/17 A2988 RMK A01 T03940166  RH  026%=      5-min Rain = 0
KGO1 202054Z 14017KT 40/17 A2988 RMK A01 T03980167  RH  026%=      5-min Rain = 0
KGO1 202055Z 14016KT 40/16 A2988 RMK A01 T03970164  RH  026%=      5-min Rain = 0
KGO1 202056Z 15019G24KT 40/16 A2988 RMK A01 T03950164  RH  026%=      5-min Rain = 0
KGO1 202057Z 17022KT 40/16 A2988 RMK A01 T03950160  RH  025%=      5-min Rain = 0
KGO1 202058Z 17020KT 40/16 A2988 RMK A01 T03960158  RH  025%=      5-min Rain = 0
KGO1 202059Z 17021KT 40/16 A2988 RMK A01 T03950156  RH  025%=      5-min Rain = 0
KGO1 202100Z 16019KT 39/16 A2988 RMK A01 T03930156  RH  025%=      5-min Rain = 0
KGO1 202101Z 17019KT 39/16 A2988 RMK A01 T03940156  RH  025%=      5-min Rain = 0
KGO1 202102Z 16018KT 39/15 A2988 RMK A01 T03940154  RH  025%=      5-min Rain = 0
KGO1 202103Z 16018KT 39/16 A2988 RMK A01 T03920155  RH  025%=      5-min Rain = 0
KGO1 202104Z 14015KT 39/15 A2988 RMK A01 T03930154  RH  025%=      5-min Rain = 0
KGO1 202105Z 16016KT 39/15 A2988 RMK A01 T03940154  RH  025%=      5-min Rain = 0
KGO1 202106Z 16013KT 39/16 A2988 RMK A01 T03940155  RH  025%=      5-min Rain = 0
KGO1 202107Z 18014G19KT 40/16 A2988 RMK A01 T03950157  RH  025%=      5-min Rain = 0
KGO1 202108Z 20015G21KT 40/16 A2988 RMK A01 T03970155  RH  024%=      5-min Rain = 0
KGO1 202109Z 20018KT 40/15 A2988 RMK A01 T03980150  RH  023%=      5-min Rain = 0
KGO1 202110Z 20016KT 40/15 A2988 RMK A01 T03980152  RH  024%=      5-min Rain = 0
KGO1 202111Z 20016KT 40/15 A2988 RMK A01 T03990150  RH  023%=      5-min Rain = 0
KGO1 202112Z 19017KT 40/15 A2988 RMK A01 T03990146  RH  023%=      5-min Rain = 0
KGO1 202113Z 19016KT 40/15 A2988 RMK A01 T03960149  RH  023%=      5-min Rain = 0
KGO1 202114Z 18016G24KT 39/15 A2988 RMK A01 T03940152  RH  024%=      5-min Rain = 0
KGO1 202115Z 16021G27KT 40/16 A2988 RMK A01 T03950155  RH  024%=      5-min Rain = 0
KGO1 202116Z 16020KT 39/16 A2988 RMK A01 T03930155  RH  025%=      5-min Rain = 0
KGO1 202117Z 16016KT 39/16 A2988 RMK A01 T03930155  RH  025%=      5-min Rain = 0
KGO1 202118Z 17015KT 39/15 A2988 RMK A01 T03930154  RH  025%=      5-min Rain = 0
KGO1 202119Z 17016KT 39/15 A2988 RMK A01 T03930153  RH  024%=      5-min Rain = 0
KGO1 202120Z 16016KT 39/15 A2988 RMK A01 T03930154  RH  025%=      5-min Rain = 0
KGO1 202121Z 16017KT 39/16 A2987 RMK A01 T03940155  RH  025%=      5-min Rain = 0
KGO1 202122Z 17018KT 40/16 A2987 RMK A01 T03960155  RH  024%=      5-min Rain = 0
KGO1 202123Z 17018KT 39/15 A2987 RMK A01 T03940154  RH  024%=      5-min Rain = 0
KGO1 202124Z 16017KT 39/16 A2987 RMK A01 T03920155  RH  025%=      5-min Rain = 0
KGO1 202125Z 17017KT 39/15 A2987 RMK A01 T03900154  RH  025%=      5-min Rain = 0
KGO1 202126Z 18013KT 39/16 A2987 RMK A01 T03890155  RH  025%=      5-min Rain = 0
KGO1 202127Z 18016KT 39/16 A2987 RMK A01 T03930155  RH  025%=      5-min Rain = 0
KGO1 202128Z 19017G25KT 40/15 A2987 RMK A01 T03960150  RH  024%=      5-min Rain = 0
KGO1 202129Z 21016G22KT 40/15 A2987 RMK A01 T03950146  RH  023%=      5-min Rain = 0
KGO1 202130Z 19021G26KT 40/15 A2987 RMK A01 T03950149  RH  024%=      5-min Rain = 0
KGO1 202131Z 17019KT 40/15 A2987 RMK A01 T03950151  RH  024%=      5-min Rain = 0
KGO1 202132Z 18015G22KT 40/15 A2987 RMK A01 T03960150  RH  024%=      5-min Rain = 0
KGO1 202133Z 17013KT 40/15 A2987 RMK A01 T03950150  RH  024%=      5-min Rain = 0
KGO1 202134Z 16016G21KT 40/15 A2987 RMK A01 T03960150  RH  024%=      5-min Rain = 0
KGO1 202135Z 15014KT 40/15 A2987 RMK A01 T03950149  RH  023%=      5-min Rain = 0
KGO1 202136Z 15015KT 40/15 A2987 RMK A01 T03950151  RH  024%=      5-min Rain = 0
KGO1 202137Z 16015KT 40/15 A2987 RMK A01 T03950153  RH  024%=      5-min Rain = 0
KGO1 202138Z 17011G16KT 40/15 A2987 RMK A01 T03950152  RH  024%=      5-min Rain = 0
KGO1 202139Z 17011KT 40/15 A2987 RMK A01 T03950150  RH  024%=      5-min Rain = 0
KGO1 202140Z 17014G20KT 40/15 A2987 RMK A01 T03960153  RH  024%=      5-min Rain = 0
KGO1 202141Z 17017KT 40/15 A2987 RMK A01 T03980152  RH  024%=      5-min Rain = 0
KGO1 202142Z 18018KT 40/15 A2987 RMK A01 T03980154  RH  024%=      5-min Rain = 0
KGO1 202143Z 17015KT 40/15 A2987 RMK A01 T03990153  RH  024%=      5-min Rain = 0
KGO1 202144Z 17014KT 40/15 A2987 RMK A01 T03990152  RH  024%=      5-min Rain = 0
KGO1 202145Z 18013G18KT 40/15 A2987 RMK A01 T03990154  RH  024%=      5-min Rain = 0
KGO1 202146Z 19012KT 40/15 A2987 RMK A01 T04010154  RH  024%=      5-min Rain = 0
KGO1 202147Z 20008KT 40/15 A2987 RMK A01 T04020153  RH  023%=      5-min Rain = 0
KGO1 202148Z 18011KT 41/15 A2987 RMK A01 T04050153  RH  023%=      5-min Rain = 0
KGO1 202149Z 18013KT 41/15 A2987 RMK A01 T04070151  RH  022%=      5-min Rain = 0
KGO1 202150Z 18017KT 40/15 A2987 RMK A01 T04030150  RH  023%=      5-min Rain = 0
KGO1 202151Z 18016KT 40/15 A2987 RMK A01 T04000150  RH  023%=      5-min Rain = 0
KGO1 202152Z 16016KT 40/15 A2987 RMK A01 T03960149  RH  023%=      5-min Rain = 0
KGO1 202153Z 17016G22KT 40/15 A2987 RMK A01 T03960152  RH  024%=      5-min Rain = 0
KGO1 202154Z 16019KT 40/15 A2987 RMK A01 T04010151  RH  023%=      5-min Rain = 0
KGO1 202155Z 17015KT 40/15 A2987 RMK A01 T03970147  RH  023%=      5-min Rain = 0
KGO1 202156Z 18017G22KT 40/15 A2987 RMK A01 T03960147  RH  023%=      5-min Rain = 0
KGO1 202157Z 19016G24KT 40/15 A2987 RMK A01 T03960147  RH  023%=      5-min Rain = 0
KGO1 202158Z 17017G22KT 40/15 A2987 RMK A01 T03970146  RH  023%=      5-min Rain = 0
KGO1 202159Z 18016KT 40/15 A2987 RMK A01 T03970146  RH  023%=      5-min Rain = 0
KGO1 202200Z 17016G21KT 40/15 A2987 RMK A01 T03960147  RH  023%=      5-min Rain = 0
KGO1 202201Z 17014KT 40/15 A2987 RMK A01 T03960146  RH  023%=      5-min Rain = 0
KGO1 202202Z 18018KT 39/15 A2987 RMK A01 T03940145  RH  023%=      5-min Rain = 0
KGO1 202203Z 16017G23KT 40/15 A2987 RMK A01 T03960145  RH  023%=      5-min Rain = 0
KGO1 202204Z 18019KT 40/15 A2987 RMK A01 T03970145  RH  023%=      5-min Rain = 0
KGO1 202205Z 17020KT 40/15 A2987 RMK A01 T03970145  RH  023%=      5-min Rain = 0
KGO1 202206Z 16016KT 39/15 A2987 RMK A01 T03940145  RH  023%=      5-min Rain = 0
KGO1 202207Z 16012KT 39/14 A2987 RMK A01 T03940144  RH  023%=      5-min Rain = 0
KGO1 202208Z 16012KT 39/14 A2987 RMK A01 T03940144  RH  023%=      5-min Rain = 0
KGO1 202209Z 16014G19KT 39/15 A2986 RMK A01 T03940145  RH  023%=      5-min Rain = 0
KGO1 202210Z 16018G23KT 40/14 A2986 RMK A01 T03950143  RH  023%=      5-min Rain = 0
KGO1 202211Z 17020KT 40/14 A2986 RMK A01 T03970139  RH  022%=      5-min Rain = 0
KGO1 202212Z 18018KT 40/14 A2987 RMK A01 T03950137  RH  022%=      5-min Rain = 0
KGO1 202213Z 16015KT 39/14 A2987 RMK A01 T03940138  RH  022%=      5-min Rain = 0
KGO1 202214Z 17015KT 40/14 A2987 RMK A01 T03950137  RH  022%=      5-min Rain = 0
KGO1 202215Z 18015G20KT 40/14 A2987 RMK A01 T03950136  RH  022%=      5-min Rain = 0
KGO1 202216Z 18013KT 40/14 A2987 RMK A01 T03950136  RH  022%=      5-min Rain = 0
KGO1 202217Z 19012KT 40/14 A2987 RMK A01 T03960135  RH  021%=      5-min Rain = 0
KGO1 202218Z 19012KT 40/14 A2987 RMK A01 T03970136  RH  021%=      5-min Rain = 0
KGO1 202219Z 17014G19KT 40/14 A2987 RMK A01 T03990135  RH  021%=      5-min Rain = 0
KGO1 202220Z 17013KT 40/13 A2987 RMK A01 T03980133  RH  021%=      5-min Rain = 0
KGO1 202221Z 17015KT 40/14 A2986 RMK A01 T03970139  RH  022%=      5-min Rain = 0
KGO1 202222Z 17015KT 40/14 A2987 RMK A01 T03990140  RH  022%=      5-min Rain = 0
KGO1 202223Z 17015KT 40/14 A2987 RMK A01 T03980137  RH  021%=      5-min Rain = 0
KGO1 202224Z 17013KT 40/14 A2987 RMK A01 T03970138  RH  022%=      5-min Rain = 0
KGO1 202225Z 17015KT 40/14 A2986 RMK A01 T03960141  RH  022%=      5-min Rain = 0
KGO1 202226Z 17016KT 40/14 A2986 RMK A01 T03980139  RH  022%=      5-min Rain = 0
KGO1 202227Z 17019KT 40/14 A2986 RMK A01 T03970138  RH  022%=      5-min Rain = 0
KGO1 202228Z 17016KT 40/14 A2986 RMK A01 T03950137  RH  022%=      5-min Rain = 0
KGO1 202229Z 18016KT 39/14 A2986 RMK A01 T03930137  RH  022%=      5-min Rain = 0
KGO1 202230Z 17018KT 39/14 A2986 RMK A01 T03930138  RH  022%=      5-min Rain = 0
KGO1 202231Z 16013KT 39/14 A2986 RMK A01 T03930136  RH  022%=      5-min Rain = 0
KGO1 202232Z 17009KT 39/14 A2986 RMK A01 T03910138  RH  022%=      5-min Rain = 0
KGO1 202233Z 17010KT 39/14 A2986 RMK A01 T03930139  RH  022%=      5-min Rain = 0
KGO1 202234Z 17012KT 40/14 A2986 RMK A01 T03950139  RH  022%=      5-min Rain = 0
KGO1 202235Z 17012G18KT 40/14 A2986 RMK A01 T03970138  RH  022%=      5-min Rain = 0
KGO1 202236Z 17016KT 40/14 A2986 RMK A01 T03970137  RH  021%=      5-min Rain = 0
KGO1 202237Z 17017KT 40/14 A2986 RMK A01 T03970137  RH  022%=      5-min Rain = 0
KGO1 202238Z 17018KT 40/14 A2986 RMK A01 T03970137  RH  022%=      5-min Rain = 0
KGO1 202239Z 17013G18KT 39/13 A2986 RMK A01 T03940134  RH  021%=      5-min Rain = 0
KGO1 202240Z 17012KT 39/14 A2986 RMK A01 T03910135  RH  022%=      5-min Rain = 0
KGO1 202241Z 17011KT 39/14 A2986 RMK A01 T03910136  RH  022%=      5-min Rain = 0
KGO1 202242Z 17013KT 39/14 A2986 RMK A01 T03940135  RH  022%=      5-min Rain = 0
KGO1 202243Z 17013G18KT 39/14 A2986 RMK A01 T03940135  RH  022%=      5-min Rain = 0
KGO1 202244Z 16015KT 40/14 A2986 RMK A01 T03950136  RH  022%=      5-min Rain = 0
KGO1 202245Z 18015KT 40/14 A2986 RMK A01 T03970135  RH  021%=      5-min Rain = 0
KGO1 202246Z 18013KT 40/14 A2986 RMK A01 T03950135  RH  021%=      5-min Rain = 0
KGO1 202247Z 18012KT 39/14 A2986 RMK A01 T03930135  RH  022%=      5-min Rain = 0
KGO1 202248Z 19012KT 39/14 A2986 RMK A01 T03930136  RH  022%=      5-min Rain = 0
KGO1 202249Z 16013KT 39/14 A2986 RMK A01 T03930139  RH  022%=      5-min Rain = 0
KGO1 202250Z 16016KT 40/14 A2986 RMK A01 T03960140  RH  022%=      5-min Rain = 0
KGO1 202251Z 16015KT 40/14 A2986 RMK A01 T03960138  RH  022%=      5-min Rain = 0
KGO1 202252Z 15016KT 40/14 A2986 RMK A01 T03950137  RH  022%=      5-min Rain = 0
KGO1 202253Z 16015KT 39/14 A2986 RMK A01 T03940135  RH  022%=      5-min Rain = 0
KGO1 202254Z 16015KT 39/13 A2986 RMK A01 T03920134  RH  022%=      5-min Rain = 0
KGO1 202255Z 18017KT 39/14 A2986 RMK A01 T03920137  RH  022%=      5-min Rain = 0
KGO1 202256Z 17015KT 39/14 A2986 RMK A01 T03930137  RH  022%=      5-min Rain = 0
KGO1 202257Z 17013KT 39/14 A2986 RMK A01 T03920137  RH  022%=      5-min Rain = 0
KGO1 202258Z 17012KT 39/14 A2986 RMK A01 T03910136  RH  022%=      5-min Rain = 0
KGO1 202259Z 15014KT 39/14 A2986 RMK A01 T03910139  RH  023%=      5-min Rain = 0
KGO1 202300Z 16013KT 39/14 A2986 RMK A01 T03940139  RH  022%=      5-min Rain = 0
KGO1 202301Z 15012KT 40/14 A2986 RMK A01 T03950137  RH  022%=      5-min Rain = 0
KGO1 202302Z 15012KT 39/14 A2986 RMK A01 T03940135  RH  022%=      5-min Rain = 0
KGO1 202303Z 16008KT 39/13 A2986 RMK A01 T03930134  RH  022%=      5-min Rain = 0
KGO1 202304Z 20010KT 39/14 A2986 RMK A01 T03930137  RH  022%=      5-min Rain = 0
KGO1 202305Z 20013KT 39/14 A2986 RMK A01 T03940140  RH  022%=      5-min Rain = 0
KGO1 202306Z 20013KT 39/14 A2986 RMK A01 T03930139  RH  022%=      5-min Rain = 0
KGO1 202307Z 19014KT 39/14 A2986 RMK A01 T03920138  RH  022%=      5-min Rain = 0
KGO1 202308Z 20012KT 39/14 A2986 RMK A01 T03910138  RH  022%=      5-min Rain = 0
KGO1 202309Z 19011KT 39/14 A2985 RMK A01 T03930137  RH  022%=      5-min Rain = 0
KGO1 202310Z 19011KT 40/14 A2986 RMK A01 T03950137  RH  022%=      5-min Rain = 0
KGO1 202311Z 19014KT 40/14 A2985 RMK A01 T03950137  RH  022%=      5-min Rain = 0
KGO1 202312Z 19017KT 39/14 A2985 RMK A01 T03940137  RH  022%=      5-min Rain = 0
KGO1 202313Z 20016KT 39/14 A2985 RMK A01 T03930136  RH  022%=      5-min Rain = 0
KGO1 202314Z 20015KT 39/14 A2985 RMK A01 T03910136  RH  022%=      5-min Rain = 0
KGO1 202315Z 19018KT 39/14 A2985 RMK A01 T03910136  RH  022%=      5-min Rain = 0
KGO1 202316Z 18014KT 39/14 A2985 RMK A01 T03900135  RH  022%=      5-min Rain = 0
KGO1 202317Z 17016KT 39/14 A2985 RMK A01 T03900135  RH  022%=      5-min Rain = 0
KGO1 202318Z 17014KT 39/13 A2985 RMK A01 T03900134  RH  022%=      5-min Rain = 0
KGO1 202319Z 17014KT 39/13 A2985 RMK A01 T03890134  RH  022%=      5-min Rain = 0
KGO1 202320Z 17011KT 39/13 A2985 RMK A01 T03890134  RH  022%=      5-min Rain = 0
KGO1 202321Z 18009KT 39/14 A2985 RMK A01 T03900135  RH  022%=      5-min Rain = 0
KGO1 202322Z 19010KT 39/13 A2985 RMK A01 T03910134  RH  022%=      5-min Rain = 0
KGO1 202323Z 18013KT 39/13 A2985 RMK A01 T03900134  RH  022%=      5-min Rain = 0
KGO1 202324Z 18015KT 39/13 A2985 RMK A01 T03900133  RH  022%=      5-min Rain = 0
KGO1 202325Z 18015KT 39/13 A2985 RMK A01 T03890134  RH  022%=      5-min Rain = 0
KGO1 202326Z 18014KT 39/14 A2985 RMK A01 T03900135  RH  022%=      5-min Rain = 0
KGO1 202327Z 17014KT 39/14 A2985 RMK A01 T03900135  RH  022%=      5-min Rain = 0
KGO1 202328Z 18012KT 39/13 A2985 RMK A01 T03890134  RH  022%=      5-min Rain = 0
KGO1 202329Z 20011KT 39/13 A2985 RMK A01 T03880134  RH  022%=      5-min Rain = 0
KGO1 202330Z 20009KT 39/14 A2985 RMK A01 T03880135  RH  022%=      5-min Rain = 0
KGO1 202331Z 20009KT 39/14 A2985 RMK A01 T03880135  RH  022%=      5-min Rain = 0
KGO1 202332Z 20015KT 39/14 A2985 RMK A01 T03890135  RH  022%=      5-min Rain = 0
KGO1 202333Z 18016KT 39/13 A2985 RMK A01 T03890134  RH  022%=      5-min Rain = 0
KGO1 202334Z 18015KT 39/13 A2985 RMK A01 T03880131  RH  022%=      5-min Rain = 0
KGO1 202335Z 18015KT 39/13 A2985 RMK A01 T03880131  RH  022%=      5-min Rain = 0
KGO1 202336Z 16013KT 39/13 A2985 RMK A01 T03880133  RH  022%=      5-min Rain = 0
KGO1 202337Z 14013KT 39/13 A2985 RMK A01 T03890133  RH  022%=      5-min Rain = 0
KGO1 202338Z 14013KT 39/13 A2985 RMK A01 T03890133  RH  022%=      5-min Rain = 0
KGO1 202339Z 17015G20KT 39/13 A2985 RMK A01 T03890132  RH  022%=      5-min Rain = 0
KGO1 202340Z 17016KT 39/13 A2985 RMK A01 T03880134  RH  022%=      5-min Rain = 0
KGO1 202341Z 18015KT 39/13 A2985 RMK A01 T03880134  RH  022%=      5-min Rain = 0
KGO1 202342Z 19012KT 39/14 A2985 RMK A01 T03860135  RH  023%=      5-min Rain = 0
KGO1 202343Z 18017KT 39/14 A2985 RMK A01 T03860136  RH  023%=      5-min Rain = 0
KGO1 202344Z 18016KT 39/14 A2985 RMK A01 T03870135  RH  022%=      5-min Rain = 0
KGO1 202345Z 19012KT 39/14 A2985 RMK A01 T03870136  RH  023%=      5-min Rain = 0
KGO1 202346Z 20014KT 39/14 A2985 RMK A01 T03870136  RH  023%=      5-min Rain = 0
KGO1 202347Z 19015KT 39/14 A2985 RMK A01 T03870136  RH  023%=      5-min Rain = 0
KGO1 202348Z 19015KT 39/14 A2985 RMK A01 T03870135  RH  022%=      5-min Rain = 0
KGO1 202349Z 18015KT 39/13 A2985 RMK A01 T03860133  RH  022%=      5-min Rain = 0
KGO1 202350Z 18015KT 39/13 A2985 RMK A01 T03850133  RH  022%=      5-min Rain = 0
KGO1 202351Z 18015KT 39/13 A2985 RMK A01 T03850133  RH  022%=      5-min Rain = 0
KGO1 202352Z 18013KT 39/13 A2985 RMK A01 T03850134  RH  023%=      5-min Rain = 0
KGO1 202353Z 19015KT 39/14 A2985 RMK A01 T03850135  RH  023%=      5-min Rain = 0
KGO1 202354Z 19014KT 39/13 A2985 RMK A01 T03850134  RH  023%=      5-min Rain = 0
KGO1 202355Z 18011KT 39/14 A2985 RMK A01 T03850135  RH  023%=      5-min Rain = 0
KGO1 202356Z 18010KT 38/14 A2985 RMK A01 T03840135  RH  023%=      5-min Rain = 0
KGO1 202357Z 18010KT 38/14 A2985 RMK A01 T03840136  RH  023%=      5-min Rain = 0
KGO1 202358Z 17011KT 39/14 A2985 RMK A01 T03860136  RH  023%=      5-min Rain = 0
KGO1 202359Z 16015KT 39/14 A2985 RMK A01 T03860136  RH  023%=      5-min Rain = 0
KGO1 210000Z 16012KT 39/14 A2985 RMK A01 T03860135  RH  023%=      5-min Rain = 0
KGO1 210001Z 16010KT 39/14 A2985 RMK A01 T03850136  RH  023%=      5-min Rain = 0
KGO1 210002Z 18013G18KT 39/14 A2985 RMK A01 T03850137  RH  023%=      5-min Rain = 0
KGO1 210003Z 18015KT 39/14 A2985 RMK A01 T03860137  RH  023%=      5-min Rain = 0
KGO1 210004Z 18015KT 39/14 A2985 RMK A01 T03860136  RH  023%=      5-min Rain = 0
KGO1 210005Z 18013KT 38/14 A2985 RMK A01 T03840135  RH  023%=      5-min Rain = 0
KGO1 210006Z 18014KT 38/14 A2985 RMK A01 T03840135  RH  023%=      5-min Rain = 0
KGO1 210007Z 17014KT 38/13 A2985 RMK A01 T03830134  RH  023%=      5-min Rain = 0
KGO1 210008Z 18013KT 38/14 A2985 RMK A01 T03830136  RH  023%=      5-min Rain = 0
KGO1 210009Z 18011KT 38/14 A2985 RMK A01 T03830137  RH  023%=      5-min Rain = 0
KGO1 210010Z 19010KT 38/14 A2985 RMK A01 T03840137  RH  023%=      5-min Rain = 0
KGO1 210011Z 18011KT 38/14 A2985 RMK A01 T03840138  RH  023%=      5-min Rain = 0
KGO1 210012Z 18013KT 39/14 A2985 RMK A01 T03850136  RH  023%=      5-min Rain = 0
KGO1 210013Z 18013KT 39/14 A2985 RMK A01 T03850135  RH  023%=      5-min Rain = 0
KGO1 210014Z 18012KT 38/14 A2985 RMK A01 T03840135  RH  023%=      5-min Rain = 0
KGO1 210015Z 18012KT 38/14 A2985 RMK A01 T03830136  RH  023%=      5-min Rain = 0
KGO1 210016Z 18012KT 38/14 A2985 RMK A01 T03830135  RH  023%=      5-min Rain = 0
KGO1 210017Z 19012KT 38/14 A2985 RMK A01 T03820136  RH  023%=      5-min Rain = 0
KGO1 210018Z 19010KT 38/14 A2985 RMK A01 T03820137  RH  023%=      5-min Rain = 0
KGO1 210019Z 18012KT 38/14 A2985 RMK A01 T03820137  RH  023%=      5-min Rain = 0
KGO1 210020Z 17014KT 38/14 A2985 RMK A01 T03820136  RH  023%=      5-min Rain = 0
KGO1 210021Z 18011KT 38/14 A2985 RMK A01 T03810137  RH  023%=      5-min Rain = 0
KGO1 210022Z 18011KT 38/14 A2985 RMK A01 T03810138  RH  024%=      5-min Rain = 0
KGO1 210023Z 17011KT 38/14 A2985 RMK A01 T03810138  RH  024%=      5-min Rain = 0
KGO1 210024Z 16011KT 38/14 A2985 RMK A01 T03810138  RH  024%=      5-min Rain = 0
KGO1 210025Z 15013KT 38/14 A2985 RMK A01 T03810136  RH  023%=      5-min Rain = 0
KGO1 210026Z 17016KT 38/14 A2985 RMK A01 T03800137  RH  024%=      5-min Rain = 0
KGO1 210027Z 18014KT 38/14 A2985 RMK A01 T03800137  RH  024%=      5-min Rain = 0
KGO1 210028Z 18016KT 38/14 A2985 RMK A01 T03800137  RH  024%=      5-min Rain = 0
KGO1 210029Z 17015KT 38/14 A2985 RMK A01 T03790136  RH  024%=      5-min Rain = 0
KGO1 210030Z 18012KT 38/14 A2985 RMK A01 T03790136  RH  024%=      5-min Rain = 0
KGO1 210031Z 18014KT 38/14 A2985 RMK A01 T03790136  RH  024%=      5-min Rain = 0
KGO1 210032Z 18017KT 38/13 A2985 RMK A01 T03790134  RH  023%=      5-min Rain = 0
KGO1 210033Z 18015KT 38/13 A2985 RMK A01 T03780134  RH  023%=      5-min Rain = 0
KGO1 210034Z 17012KT 38/14 A2985 RMK A01 T03770136  RH  024%=      5-min Rain = 0
KGO1 210035Z 18013KT 38/14 A2985 RMK A01 T03770137  RH  024%=      5-min Rain = 0
KGO1 210036Z 18012KT 38/14 A2985 RMK A01 T03780137  RH  024%=      5-min Rain = 0
KGO1 210037Z 18013KT 38/14 A2985 RMK A01 T03770137  RH  024%=      5-min Rain = 0
KGO1 210038Z 18012KT 38/14 A2985 RMK A01 T03770137  RH  024%=      5-min Rain = 0
KGO1 210039Z 18012KT 38/14 A2985 RMK A01 T03770136  RH  024%=      5-min Rain = 0
KGO1 210040Z 18013KT 38/14 A2985 RMK A01 T03770137  RH  024%=      5-min Rain = 0
KGO1 210041Z 16013KT 38/14 A2985 RMK A01 T03760138  RH  024%=      5-min Rain = 0
KGO1 210042Z 17013KT 38/14 A2985 RMK A01 T03760138  RH  024%=      5-min Rain = 0
KGO1 210043Z 16015KT 38/14 A2985 RMK A01 T03750138  RH  024%=      5-min Rain = 0
KGO1 210044Z 16015KT 38/14 A2985 RMK A01 T03750138  RH  024%=      5-min Rain = 0
KGO1 210045Z 16015KT 38/14 A2985 RMK A01 T03750138  RH  024%=      5-min Rain = 0
KGO1 210046Z 16013KT 37/14 A2985 RMK A01 T03740138  RH  025%=      5-min Rain = 0
KGO1 210047Z 16014KT 37/14 A2986 RMK A01 T03740138  RH  025%=      5-min Rain = 0
KGO1 210048Z 16013KT 37/14 A2986 RMK A01 T03740138  RH  025%=      5-min Rain = 0
KGO1 210049Z 16013KT 37/14 A2986 RMK A01 T03730138  RH  025%=      5-min Rain = 0
KGO1 210050Z 16013KT 37/14 A2986 RMK A01 T03730138  RH  025%=      5-min Rain = 0
KGO1 210051Z 17015KT 37/14 A2986 RMK A01 T03730138  RH  025%=      5-min Rain = 0
KGO1 210052Z 17014KT 37/14 A2986 RMK A01 T03730138  RH  025%=      5-min Rain = 0
KGO1 210053Z 17013KT 37/14 A2986 RMK A01 T03720138  RH  025%=      5-min Rain = 0
KGO1 210054Z 17016KT 37/14 A2986 RMK A01 T03720138  RH  025%=      5-min Rain = 0
KGO1 210055Z 16011KT 37/14 A2986 RMK A01 T03720139  RH  025%=      5-min Rain = 0
KGO1 210056Z 16014KT 37/14 A2986 RMK A01 T03710141  RH  025%=      5-min Rain = 0
KGO1 210057Z 15012KT 37/14 A2986 RMK A01 T03710142  RH  026%=      5-min Rain = 0
KGO1 210058Z 15013KT 37/14 A2986 RMK A01 T03700144  RH  026%=      5-min Rain = 0
KGO1 210059Z 15015KT 37/15 A2986 RMK A01 T03700147  RH  027%=      5-min Rain = 0
KGO1 210100Z 15017KT 37/15 A2986 RMK A01 T03680150  RH  027%=      5-min Rain = 0
KGO1 210101Z 17014KT 37/15 A2986 RMK A01 T03660152  RH  028%=      5-min Rain = 0
KGO1 210102Z 15012KT 37/15 A2986 RMK A01 T03650152  RH  028%=      5-min Rain = 0
KGO1 210103Z 15013KT 36/15 A2986 RMK A01 T03640153  RH  029%=      5-min Rain = 0
KGO1 210104Z 14017KT 36/15 A2986 RMK A01 T03640154  RH  029%=      5-min Rain = 0
KGO1 210105Z 15017KT 36/15 A2986 RMK A01 T03630154  RH  029%=      5-min Rain = 0
KGO1 210106Z 15016KT 36/15 A2986 RMK A01 T03610154  RH  029%=      5-min Rain = 0
KGO1 210107Z 14014KT 36/16 A2986 RMK A01 T03610155  RH  030%=      5-min Rain = 0
KGO1 210108Z 14017KT 36/16 A2986 RMK A01 T03600156  RH  030%=      5-min Rain = 0
KGO1 210109Z 14018KT 36/16 A2986 RMK A01 T03590156  RH  030%=      5-min Rain = 0
KGO1 210110Z 14018KT 36/16 A2986 RMK A01 T03590156  RH  030%=      5-min Rain = 0
KGO1 210111Z 14019KT 36/16 A2986 RMK A01 T03580156  RH  030%=      5-min Rain = 0
KGO1 210112Z 14016G21KT 36/16 A2986 RMK A01 T03580156  RH  030%=      5-min Rain = 0
KGO1 210113Z 14016G21KT 36/16 A2986 RMK A01 T03570156  RH  030%=      5-min Rain = 0
KGO1 210114Z 14017KT 36/16 A2986 RMK A01 T03560156  RH  030%=      5-min Rain = 0
KGO1 210115Z 14018KT 36/16 A2986 RMK A01 T03560156  RH  030%=      5-min Rain = 0
KGO1 210116Z 14014KT 36/16 A2986 RMK A01 T03560157  RH  031%=      5-min Rain = 0
KGO1 210117Z 14016KT 36/16 A2986 RMK A01 T03560157  RH  031%=      5-min Rain = 0
KGO1 210118Z 14015KT 36/16 A2986 RMK A01 T03550157  RH  031%=      5-min Rain = 0
KGO1 210119Z 14015KT 35/16 A2986 RMK A01 T03540157  RH  031%=      5-min Rain = 0
KGO1 210120Z 14014KT 35/16 A2986 RMK A01 T03540157  RH  031%=      5-min Rain = 0
KGO1 210121Z 14017KT 35/16 A2987 RMK A01 T03530157  RH  031%=      5-min Rain = 0
KGO1 210122Z 14019KT 35/16 A2987 RMK A01 T03530157  RH  031%=      5-min Rain = 0
KGO1 210123Z 14015KT 35/16 A2987 RMK A01 T03530157  RH  031%=      5-min Rain = 0
KGO1 210124Z 14015KT 35/16 A2987 RMK A01 T03530157  RH  031%=      5-min Rain = 0
KGO1 210125Z 14017KT 35/16 A2987 RMK A01 T03520157  RH  031%=      5-min Rain = 0
KGO1 210126Z 14019G24KT 35/16 A2987 RMK A01 T03520157  RH  031%=      5-min Rain = 0
KGO1 210127Z 14017KT 35/16 A2987 RMK A01 T03510157  RH  031%=      5-min Rain = 0
KGO1 210128Z 14014KT 35/16 A2987 RMK A01 T03510157  RH  031%=      5-min Rain = 0
KGO1 210129Z 15015KT 35/16 A2987 RMK A01 T03510157  RH  032%=      5-min Rain = 0
KGO1 210130Z 15012KT 35/16 A2987 RMK A01 T03500157  RH  032%=      5-min Rain = 0
KGO1 210131Z 15012G17KT 35/16 A2987 RMK A01 T03490157  RH  032%=      5-min Rain = 0
KGO1 210132Z 14015G20KT 35/16 A2987 RMK A01 T03480156  RH  032%=      5-min Rain = 0
KGO1 210133Z 15016KT 35/16 A2987 RMK A01 T03480156  RH  032%=      5-min Rain = 0
KGO1 210134Z 14016KT 35/16 A2987 RMK A01 T03480156  RH  032%=      5-min Rain = 0
KGO1 210135Z 14015KT 35/16 A2987 RMK A01 T03480156  RH  032%=      5-min Rain = 0
KGO1 210136Z 15018KT 35/16 A2987 RMK A01 T03470156  RH  032%=      5-min Rain = 0
KGO1 210137Z 15017KT 35/16 A2987 RMK A01 T03480156  RH  032%=      5-min Rain = 0
KGO1 210138Z 15016KT 35/16 A2987 RMK A01 T03480156  RH  032%=      5-min Rain = 0
KGO1 210139Z 14016KT 35/16 A2987 RMK A01 T03470156  RH  032%=      5-min Rain = 0
KGO1 210140Z 15016KT 35/16 A2987 RMK A01 T03470156  RH  032%=      5-min Rain = 0
KGO1 210141Z 14015KT 35/16 A2987 RMK A01 T03460155  RH  032%=      5-min Rain = 0
KGO1 210142Z 14016KT 35/16 A2987 RMK A01 T03460156  RH  032%=      5-min Rain = 0
KGO1 210143Z 14017KT 35/16 A2987 RMK A01 T03450156  RH  032%=      5-min Rain = 0
KGO1 210144Z 14015KT 35/16 A2987 RMK A01 T03450156  RH  032%=      5-min Rain = 0
KGO1 210145Z 14016KT 34/16 A2987 RMK A01 T03440156  RH  033%=      5-min Rain = 0
KGO1 210146Z 14016KT 34/16 A2987 RMK A01 T03440156  RH  033%=      5-min Rain = 0
KGO1 210147Z 14016G22KT 34/16 A2987 RMK A01 T03440156  RH  033%=      5-min Rain = 0
KGO1 210148Z 14016G21KT 34/16 A2987 RMK A01 T03440156  RH  033%=      5-min Rain = 0
KGO1 210149Z 14014KT 34/16 A2987 RMK A01 T03430156  RH  033%=      5-min Rain = 0
KGO1 210150Z 14014KT 34/16 A2988 RMK A01 T03420156  RH  033%=      5-min Rain = 0
KGO1 210151Z 14014KT 34/16 A2987 RMK A01 T03410156  RH  033%=      5-min Rain = 0
KGO1 210152Z 14017KT 34/16 A2988 RMK A01 T03410157  RH  033%=      5-min Rain = 0
KGO1 210153Z 14015KT 34/16 A2987 RMK A01 T03400156  RH  033%=      5-min Rain = 0
KGO1 210154Z 15015KT 34/16 A2988 RMK A01 T03410157  RH  033%=      5-min Rain = 0
KGO1 210155Z 15018KT 34/16 A2987 RMK A01 T03400156  RH  033%=      5-min Rain = 0
KGO1 210156Z 14015KT 34/16 A2988 RMK A01 T03400156  RH  033%=      5-min Rain = 0
KGO1 210157Z 15014KT 34/16 A2988 RMK A01 T03410157  RH  033%=      5-min Rain = 0
KGO1 210158Z 14014G20KT 34/16 A2988 RMK A01 T03400157  RH  033%=      5-min Rain = 0
KGO1 210159Z 15016KT 34/16 A2988 RMK A01 T03390157  RH  034%=      5-min Rain = 0
KGO1 210200Z 14015KT 34/16 A2988 RMK A01 T03390157  RH  034%=      5-min Rain = 0
KGO1 210201Z 14013KT 34/16 A2988 RMK A01 T03390157  RH  034%=      5-min Rain = 0
KGO1 210202Z 14014KT 34/16 A2987 RMK A01 T03380157  RH  034%=      5-min Rain = 0
KGO1 210203Z 15015KT 34/16 A2987 RMK A01 T03370157  RH  034%=      5-min Rain = 0
KGO1 210204Z 14016KT 34/16 A2987 RMK A01 T03370157  RH  034%=      5-min Rain = 0
KGO1 210205Z 14013KT 34/16 A2988 RMK A01 T03370157  RH  034%=      5-min Rain = 0
KGO1 210206Z 15013KT 34/16 A2988 RMK A01 T03370157  RH  034%=      5-min Rain = 0
KGO1 210207Z 14013KT 34/16 A2988 RMK A01 T03360158  RH  034%=      5-min Rain = 0
KGO1 210208Z 14012KT 34/16 A2988 RMK A01 T03350158  RH  035%=      5-min Rain = 0
KGO1 210209Z 14013G18KT 33/16 A2988 RMK A01 T03340158  RH  035%=      5-min Rain = 0
KGO1 210210Z 14014KT 33/16 A2988 RMK A01 T03340158  RH  035%=      5-min Rain = 0
KGO1 210211Z 14015KT 33/16 A2988 RMK A01 T03340158  RH  035%=      5-min Rain = 0
KGO1 210212Z 14014KT 33/16 A2988 RMK A01 T03340158  RH  035%=      5-min Rain = 0
KGO1 210213Z 15015KT 33/16 A2988 RMK A01 T03340159  RH  035%=      5-min Rain = 0
KGO1 210214Z 14013KT 33/16 A2988 RMK A01 T03340159  RH  035%=      5-min Rain = 0
KGO1 210215Z 14012KT 33/16 A2988 RMK A01 T03330159  RH  035%=      5-min Rain = 0
KGO1 210216Z 14016KT 33/16 A2987 RMK A01 T03310159  RH  036%=      5-min Rain = 0
KGO1 210217Z 14017KT 33/16 A2987 RMK A01 T03310159  RH  036%=      5-min Rain = 0
KGO1 210218Z 14017KT 33/16 A2988 RMK A01 T03310159  RH  036%=      5-min Rain = 0
KGO1 210219Z 14017KT 33/16 A2988 RMK A01 T03320160  RH  036%=      5-min Rain = 0
KGO1 210220Z 14017KT 33/16 A2988 RMK A01 T03320161  RH  036%=      5-min Rain = 0
KGO1 210221Z 15016KT 33/16 A2988 RMK A01 T03320161  RH  036%=      5-min Rain = 0
KGO1 210222Z 14015KT 33/16 A2988 RMK A01 T03310161  RH  036%=      5-min Rain = 0
KGO1 210223Z 14015KT 33/16 A2988 RMK A01 T03300161  RH  036%=      5-min Rain = 0
KGO1 210224Z 14017KT 33/16 A2988 RMK A01 T03300161  RH  036%=      5-min Rain = 0
KGO1 210225Z 13018KT 33/16 A2988 RMK A01 T03290161  RH  036%=      5-min Rain = 0
KGO1 210226Z 14018KT 33/16 A2988 RMK A01 T03300161  RH  036%=      5-min Rain = 0
KGO1 210227Z 15018G23KT 33/16 A2988 RMK A01 T03290161  RH  036%=      5-min Rain = 0
KGO1 210228Z 14017KT 33/16 A2988 RMK A01 T03300161  RH  036%=      5-min Rain = 0
KGO1 210229Z 14017KT 33/16 A2988 RMK A01 T03290161  RH  037%=      5-min Rain = 0
KGO1 210230Z 14019KT 33/16 A2988 RMK A01 T03280161  RH  037%=      5-min Rain = 0
KGO1 210231Z 14017KT 33/16 A2988 RMK A01 T03280161  RH  037%=      5-min Rain = 0
KGO1 210232Z 14017KT 33/16 A2988 RMK A01 T03270161  RH  037%=      5-min Rain = 0
KGO1 210233Z 14016KT 33/16 A2989 RMK A01 T03270161  RH  037%=      5-min Rain = 0
KGO1 210234Z 14015KT 33/16 A2989 RMK A01 T03260161  RH  037%=      5-min Rain = 0
KGO1 210235Z 14015KT 33/16 A2989 RMK A01 T03260161  RH  037%=      5-min Rain = 0
KGO1 210236Z 14014KT 33/16 A2989 RMK A01 T03250161  RH  037%=      5-min Rain = 0
KGO1 210237Z 14015KT 33/16 A2989 RMK A01 T03250161  RH  038%=      5-min Rain = 0
KGO1 210238Z 14015KT 32/16 A2989 RMK A01 T03240162  RH  038%=      5-min Rain = 0
KGO1 210239Z 14017KT 32/16 A2989 RMK A01 T03240162  RH  038%=      5-min Rain = 0
KGO1 210240Z 15016KT 32/16 A2989 RMK A01 T03240162  RH  038%=      5-min Rain = 0
KGO1 210241Z 14015KT 32/16 A2989 RMK A01 T03240162  RH  038%=      5-min Rain = 0
KGO1 210242Z 14014KT 32/16 A2989 RMK A01 T03230162  RH  038%=      5-min Rain = 0
KGO1 210243Z 14014KT 32/16 A2989 RMK A01 T03230162  RH  038%=      5-min Rain = 0
KGO1 210244Z 15015KT 32/16 A2989 RMK A01 T03220162  RH  038%=      5-min Rain = 0
KGO1 210245Z 14016G21KT 32/16 A2989 RMK A01 T03220162  RH  038%=      5-min Rain = 0
KGO1 210246Z 14016KT 32/16 A2989 RMK A01 T03220162  RH  038%=      5-min Rain = 0
KGO1 210247Z 14017KT 32/16 A2989 RMK A01 T03220162  RH  038%=      5-min Rain = 0
KGO1 210248Z 14015KT 32/16 A2989 RMK A01 T03220162  RH  038%=      5-min Rain = 0
KGO1 210249Z 14016G21KT 32/16 A2989 RMK A01 T03220162  RH  038%=      5-min Rain = 0
KGO1 210250Z 14018KT 32/16 A2989 RMK A01 T03210162  RH  038%=      5-min Rain = 0
KGO1 210251Z 14016G21KT 32/16 A2989 RMK A01 T03210161  RH  038%=      5-min Rain = 0
KGO1 210252Z 14016KT 32/16 A299 RMK A01 T03210162  RH  038%=      5-min Rain = 0
KGO1 210253Z 14017KT 32/16 A299 RMK A01 T03210161  RH  038%=      5-min Rain = 0
KGO1 210254Z 14016KT 32/16 A299 RMK A01 T03210162  RH  038%=      5-min Rain = 0
KGO1 210255Z 15016KT 32/16 A299 RMK A01 T03210162  RH  038%=      5-min Rain = 0
KGO1 210256Z 15015KT 32/16 A299 RMK A01 T03210162  RH  038%=      5-min Rain = 0
KGO1 210257Z 14016KT 32/16 A299 RMK A01 T03200162  RH  039%=      5-min Rain = 0
KGO1 210258Z 14018KT 32/16 A299 RMK A01 T03200161  RH  039%=      5-min Rain = 0
KGO1 210259Z 14017KT 32/16 A299 RMK A01 T03200161  RH  039%=      5-min Rain = 0
KGO1 210300Z 15015KT 32/16 A299 RMK A01 T03200162  RH  039%=      5-min Rain = 0
KGO1 210301Z 14014KT 32/16 A299 RMK A01 T03200162  RH  039%=      5-min Rain = 0
KGO1 210302Z 14017KT 32/16 A299 RMK A01 T03190161  RH  039%=      5-min Rain = 0
KGO1 210303Z 15014KT 32/16 A299 RMK A01 T03180161  RH  039%=      5-min Rain = 0
KGO1 210304Z 15015KT 32/16 A299 RMK A01 T03180161  RH  039%=      5-min Rain = 0
KGO1 210305Z 14014KT 32/16 A299 RMK A01 T03180161  RH  039%=      5-min Rain = 0
KGO1 210306Z 14017KT 32/16 A299 RMK A01 T03170161  RH  039%=      5-min Rain = 0
KGO1 210307Z 14015KT 32/16 A299 RMK A01 T03170161  RH  039%=      5-min Rain = 0
KGO1 210308Z 14012KT 32/16 A299 RMK A01 T03170161  RH  039%=      5-min Rain = 0
KGO1 210309Z 15015KT 32/16 A299 RMK A01 T03160161  RH  039%=      5-min Rain = 0
KGO1 210310Z 14014KT 32/16 A299 RMK A01 T03160161  RH  039%=      5-min Rain = 0
KGO1 210311Z 14019KT 32/16 A2991 RMK A01 T03160161  RH  039%=      5-min Rain = 0
KGO1 210312Z 14015KT 32/16 A2991 RMK A01 T03160161  RH  039%=      5-min Rain = 0
KGO1 210313Z 14013KT 32/16 A2991 RMK A01 T03160161  RH  039%=      5-min Rain = 0
KGO1 210314Z 14013KT 32/16 A2991 RMK A01 T03160161  RH  039%=      5-min Rain = 0
KGO1 210315Z 15015KT 32/16 A2991 RMK A01 T03150161  RH  039%=      5-min Rain = 0
KGO1 210316Z 14015G20KT 32/16 A2991 RMK A01 T03150161  RH  039%=      5-min Rain = 0
KGO1 210317Z 15015KT 32/16 A2991 RMK A01 T03150161  RH  039%=      5-min Rain = 0
KGO1 210318Z 14014KT 32/16 A2991 RMK A01 T03150160  RH  040%=      5-min Rain = 0
KGO1 210319Z 15015G22KT 32/16 A2991 RMK A01 T03150161  RH  040%=      5-min Rain = 0
KGO1 210320Z 14015KT 31/16 A2991 RMK A01 T03140161  RH  040%=      5-min Rain = 0
KGO1 210321Z 14015KT 31/16 A2991 RMK A01 T03140161  RH  040%=      5-min Rain = 0
KGO1 210322Z 15016KT 31/16 A2991 RMK A01 T03140161  RH  040%=      5-min Rain = 0
KGO1 210323Z 14015KT 31/16 A2991 RMK A01 T03140161  RH  040%=      5-min Rain = 0
KGO1 210324Z 14014KT 31/16 A2992 RMK A01 T03140161  RH  040%=      5-min Rain = 0
KGO1 210325Z 14015KT 31/16 A2992 RMK A01 T03140161  RH  040%=      5-min Rain = 0
KGO1 210326Z 14014KT 31/16 A2992 RMK A01 T03130161  RH  040%=      5-min Rain = 0
KGO1 210327Z 15014KT 31/16 A2992 RMK A01 T03130161  RH  040%=      5-min Rain = 0
KGO1 210328Z 14014KT 31/16 A2992 RMK A01 T03120161  RH  040%=      5-min Rain = 0
KGO1 210329Z 15013KT 31/16 A2992 RMK A01 T03120161  RH  040%=      5-min Rain = 0
KGO1 210330Z 15016KT 31/16 A2992 RMK A01 T03120161  RH  040%=      5-min Rain = 0
KGO1 210331Z 14014KT 31/16 A2992 RMK A01 T03120161  RH  040%=      5-min Rain = 0
KGO1 210332Z 15015KT 31/16 A2992 RMK A01 T03120161  RH  040%=      5-min Rain = 0
KGO1 210333Z 15014KT 31/16 A2992 RMK A01 T03110161  RH  040%=      5-min Rain = 0
KGO1 210334Z 14015KT 31/16 A2992 RMK A01 T03120161  RH  040%=      5-min Rain = 0
KGO1 210335Z 15016KT 31/16 A2992 RMK A01 T03120161  RH  040%=      5-min Rain = 0
KGO1 210336Z 15015KT 31/16 A2992 RMK A01 T03120161  RH  040%=      5-min Rain = 0
KGO1 210337Z 15014KT 31/16 A2992 RMK A01 T03120161  RH  040%=      5-min Rain = 0
KGO1 210338Z 14017KT 31/16 A2992 RMK A01 T03110162  RH  041%=      5-min Rain = 0
KGO1 210339Z 14017KT 31/16 A2992 RMK A01 T03110161  RH  041%=      5-min Rain = 0
KGO1 210340Z 14014KT 31/16 A2992 RMK A01 T03110161  RH  041%=      5-min Rain = 0
KGO1 210341Z 14014KT 31/16 A2992 RMK A01 T03110162  RH  041%=      5-min Rain = 0
KGO1 210342Z 14014KT 31/16 A2992 RMK A01 T03100162  RH  041%=      5-min Rain = 0
KGO1 210343Z 15014KT 31/16 A2992 RMK A01 T03100162  RH  041%=      5-min Rain = 0
KGO1 210344Z 14015KT 31/16 A2993 RMK A01 T03090162  RH  041%=      5-min Rain = 0
KGO1 210345Z 14016KT 31/16 A2993 RMK A01 T03090162  RH  041%=      5-min Rain = 0
KGO1 210346Z 14016G21KT 31/16 A2993 RMK A01 T03090162  RH  041%=      5-min Rain = 0
KGO1 210347Z 14016KT 31/16 A2993 RMK A01 T03090162  RH  041%=      5-min Rain = 0
KGO1 210348Z 14015KT 31/16 A2993 RMK A01 T03090161  RH  041%=      5-min Rain = 0
KGO1 210349Z 14016KT 31/16 A2993 RMK A01 T03090162  RH  041%=      5-min Rain = 0
KGO1 210350Z 14015KT 31/16 A2993 RMK A01 T03090162  RH  041%=      5-min Rain = 0
KGO1 210351Z 14013KT 31/16 A2993 RMK A01 T03090162  RH  041%=      5-min Rain = 0
KGO1 210352Z 14016KT 31/16 A2993 RMK A01 T03080162  RH  041%=      5-min Rain = 0
KGO1 210353Z 14015KT 31/16 A2993 RMK A01 T03080161  RH  041%=      5-min Rain = 0
KGO1 210354Z 14015KT 31/16 A2993 RMK A01 T03080161  RH  041%=      5-min Rain = 0
KGO1 210355Z 14012KT 31/16 A2993 RMK A01 T03080162  RH  041%=      5-min Rain = 0
KGO1 210356Z 14014KT 31/16 A2993 RMK A01 T03060161  RH  042%=      5-min Rain = 0
KGO1 210357Z 14012G17KT 31/16 A2993 RMK A01 T03060162  RH  042%=      5-min Rain = 0
KGO1 210358Z 14014KT 31/16 A2993 RMK A01 T03050161  RH  042%=      5-min Rain = 0
KGO1 210359Z 14013KT 31/16 A2993 RMK A01 T03050161  RH  042%=      5-min Rain = 0
KGO1 210400Z 14014KT 30/16 A2993 RMK A01 T03040161  RH  042%=      5-min Rain = 0
KGO1 210401Z 13013KT 30/16 A2994 RMK A01 T03040161  RH  042%=      5-min Rain = 0
KGO1 210402Z 14012KT 30/16 A2994 RMK A01 T03040161  RH  042%=      5-min Rain = 0
KGO1 210403Z 14013KT 30/16 A2994 RMK A01 T03040160  RH  042%=      5-min Rain = 0
KGO1 210404Z 14014KT 30/16 A2994 RMK A01 T03040160  RH  042%=      5-min Rain = 0
KGO1 210405Z 14013KT 30/16 A2994 RMK A01 T03040160  RH  042%=      5-min Rain = 0
KGO1 210406Z 14014KT 30/16 A2994 RMK A01 T03030160  RH  042%=      5-min Rain = 0
KGO1 210407Z 14015KT 30/16 A2994 RMK A01 T03040160  RH  042%=      5-min Rain = 0
KGO1 210408Z 13012KT 30/16 A2994 RMK A01 T03030160  RH  042%=      5-min Rain = 0
KGO1 210409Z 14012KT 30/16 A2994 RMK A01 T03030160  RH  042%=      5-min Rain = 0
KGO1 210410Z 14011KT 30/16 A2994 RMK A01 T03030159  RH  042%=      5-min Rain = 0
KGO1 210411Z 14013KT 30/16 A2994 RMK A01 T03020159  RH  042%=      5-min Rain = 0
KGO1 210412Z 14015KT 30/16 A2994 RMK A01 T03020159  RH  042%=      5-min Rain = 0
KGO1 210413Z 14012KT 30/16 A2994 RMK A01 T03020158  RH  042%=      5-min Rain = 0
KGO1 210414Z 14014KT 30/16 A2994 RMK A01 T03020158  RH  042%=      5-min Rain = 0
KGO1 210415Z 14012KT 30/16 A2994 RMK A01 T03020157  RH  042%=      5-min Rain = 0
KGO1 210416Z 14013KT 30/16 A2994 RMK A01 T03020157  RH  042%=      5-min Rain = 0
KGO1 210417Z 14012KT 30/16 A2994 RMK A01 T03010157  RH  042%=      5-min Rain = 0
KGO1 210418Z 14011KT 30/16 A2994 RMK A01 T03000157  RH  042%=      5-min Rain = 0
KGO1 210419Z 14013KT 30/16 A2994 RMK A01 T03000157  RH  042%=      5-min Rain = 0
KGO1 210420Z 14014KT 30/16 A2994 RMK A01 T02990157  RH  042%=      5-min Rain = 0
KGO1 210421Z 14012KT 30/16 A2994 RMK A01 T02990157  RH  042%=      5-min Rain = 0
KGO1 210422Z 14013KT 30/16 A2994 RMK A01 T02990157  RH  042%=      5-min Rain = 0
KGO1 210423Z 14013KT 30/16 A2994 RMK A01 T02980157  RH  042%=      5-min Rain = 0
KGO1 210424Z 14015KT 30/16 A2994 RMK A01 T02990157  RH  042%=      5-min Rain = 0
KGO1 210425Z 14015KT 30/16 A2994 RMK A01 T02990157  RH  042%=      5-min Rain = 0
KGO1 210426Z 15013KT 30/16 A2994 RMK A01 T02990157  RH  042%=      5-min Rain = 0
KGO1 210427Z 14013KT 30/16 A2994 RMK A01 T03000157  RH  042%=      5-min Rain = 0
KGO1 210428Z 14014KT 30/16 A2994 RMK A01 T02990157  RH  042%=      5-min Rain = 0
KGO1 210429Z 15014KT 30/16 A2994 RMK A01 T02980157  RH  042%=      5-min Rain = 0
KGO1 210430Z 14013KT 30/16 A2994 RMK A01 T02980157  RH  042%=      5-min Rain = 0
KGO1 210431Z 14013KT 30/16 A2994 RMK A01 T02980157  RH  042%=      5-min Rain = 0
KGO1 210432Z 15015KT 30/16 A2994 RMK A01 T02970157  RH  043%=      5-min Rain = 0
KGO1 210433Z 14014KT 30/16 A2994 RMK A01 T02980157  RH  043%=      5-min Rain = 0
KGO1 210434Z 14013KT 30/16 A2994 RMK A01 T02980157  RH  043%=      5-min Rain = 0
KGO1 210435Z 15013KT 30/16 A2994 RMK A01 T02970157  RH  043%=      5-min Rain = 0
KGO1 210436Z 15015KT 30/16 A2994 RMK A01 T02960157  RH  043%=      5-min Rain = 0
KGO1 210437Z 15015KT 30/16 A2994 RMK A01 T02960158  RH  043%=      5-min Rain = 0
KGO1 210438Z 14015KT 30/16 A2994 RMK A01 T02960157  RH  043%=      5-min Rain = 0
KGO1 210439Z 14014KT 30/16 A2994 RMK A01 T02970157  RH  043%=      5-min Rain = 0
KGO1 210440Z 14015KT 30/16 A2994 RMK A01 T02960157  RH  043%=      5-min Rain = 0
KGO1 210441Z 14014KT 30/16 A2994 RMK A01 T02960158  RH  043%=      5-min Rain = 0
KGO1 210442Z 14015KT 30/16 A2994 RMK A01 T02960158  RH  043%=      5-min Rain = 0
KGO1 210443Z 14015KT 30/16 A2994 RMK A01 T02960158  RH  043%=      5-min Rain = 0
KGO1 210444Z 14014KT 30/16 A2994 RMK A01 T02950158  RH  043%=      5-min Rain = 0
KGO1 210445Z 14015KT 30/16 A2994 RMK A01 T02950158  RH  044%=      5-min Rain = 0
KGO1 210446Z 14017KT 30/16 A2994 RMK A01 T02950159  RH  044%=      5-min Rain = 0
KGO1 210447Z 14016KT 30/16 A2994 RMK A01 T02950159  RH  044%=      5-min Rain = 0
KGO1 210448Z 14015KT 30/16 A2994 RMK A01 T02950159  RH  044%=      5-min Rain = 0
KGO1 210449Z 14015KT 30/16 A2994 RMK A01 T02950159  RH  044%=      5-min Rain = 0
KGO1 210450Z 14015KT 30/16 A2994 RMK A01 T02950159  RH  044%=      5-min Rain = 0
KGO1 210451Z 15015G20KT 29/16 A2994 RMK A01 T02940159  RH  044%=      5-min Rain = 0
KGO1 210452Z 15015KT 29/16 A2994 RMK A01 T02940159  RH  044%=      5-min Rain = 0
KGO1 210453Z 15014KT 29/16 A2994 RMK A01 T02940159  RH  044%=      5-min Rain = 0
KGO1 210454Z 14016KT 29/16 A2994 RMK A01 T02930159  RH  044%=      5-min Rain = 0
KGO1 210455Z 14015KT 29/16 A2994 RMK A01 T02930159  RH  044%=      5-min Rain = 0
KGO1 210456Z 14017KT 29/16 A2994 RMK A01 T02930159  RH  044%=      5-min Rain = 0
KGO1 210457Z 14015KT 29/16 A2994 RMK A01 T02930159  RH  044%=      5-min Rain = 0
KGO1 210458Z 15014KT 29/16 A2994 RMK A01 T02930159  RH  044%=      5-min Rain = 0
KGO1 210459Z 15015KT 29/16 A2994 RMK A01 T02930159  RH  044%=      5-min Rain = 0

Page generated in 0.0721 seconds.